<?xml version="1.0" encoding="UTF-8" standalone="no" ?>
<gpx xmlns="http://www.topografix.com/GPX/1/1" xmlns:xsi="http://www.w3.org/2001/XMLSchema-instance" xsi:schemaLocation="http://www.topografix.com/GPX/1/1 http://www.topografix.com/GPX/1/1/gpx.xsd" version="1.1" creator="VisuGPX - https://www.visugpx.com">
  <metadata>
    <name>Vallée du NABRE  : Mérens Les Vals - étang de l'ESTAGNAS</name>
    <desc><![CDATA[Très belle vallée avec un étang de l'Estagnas d'un vert incroyable : superbe et sans difficulté technique.
Et avec pour finir la journée, un bain dans les trous en pleine nature de source d'eau chaude de Mérens, environ 15 mn avant d'arriver au parking : TOP !!!]]></desc>
  </metadata>
  <trk>
    <name><![CDATA[20180729205114-onVww]]></name>
    <trkseg>
      <trkpt lat="42.65536" lon="1.84328">
        <ele>1153</ele>
        <time>2018-07-29T06:22:05Z</time>
      </trkpt>
      <trkpt lat="42.65539" lon="1.84322">
        <ele>1152</ele>
        <time>2018-07-29T06:29:34Z</time>
      </trkpt>
      <trkpt lat="42.65545" lon="1.84319">
        <ele>1151</ele>
        <time>2018-07-29T06:30:15Z</time>
      </trkpt>
      <trkpt lat="42.65556" lon="1.84325">
        <ele>1150</ele>
        <time>2018-07-29T06:30:26Z</time>
      </trkpt>
      <trkpt lat="42.65565" lon="1.84332">
        <ele>1149</ele>
        <time>2018-07-29T06:30:36Z</time>
      </trkpt>
      <trkpt lat="42.65573" lon="1.84341">
        <ele>1149</ele>
        <time>2018-07-29T06:30:46Z</time>
      </trkpt>
      <trkpt lat="42.65579" lon="1.84353">
        <ele>1151</ele>
        <time>2018-07-29T06:30:57Z</time>
      </trkpt>
      <trkpt lat="42.65588" lon="1.84362">
        <ele>1152</ele>
        <time>2018-07-29T06:31:07Z</time>
      </trkpt>
      <trkpt lat="42.65594" lon="1.84377">
        <ele>1154</ele>
        <time>2018-07-29T06:31:19Z</time>
      </trkpt>
      <trkpt lat="42.65585" lon="1.84387">
        <ele>1155</ele>
        <time>2018-07-29T06:31:33Z</time>
      </trkpt>
      <trkpt lat="42.65575" lon="1.84397">
        <ele>1156</ele>
        <time>2018-07-29T06:31:48Z</time>
      </trkpt>
      <trkpt lat="42.65568" lon="1.84405">
        <ele>1157</ele>
        <time>2018-07-29T06:32:06Z</time>
      </trkpt>
      <trkpt lat="42.65564" lon="1.8442">
        <ele>1162</ele>
        <time>2018-07-29T06:32:24Z</time>
      </trkpt>
      <trkpt lat="42.6556" lon="1.84435">
        <ele>1163</ele>
        <time>2018-07-29T06:32:41Z</time>
      </trkpt>
      <trkpt lat="42.65556" lon="1.84452">
        <ele>1164</ele>
        <time>2018-07-29T06:32:57Z</time>
      </trkpt>
      <trkpt lat="42.65553" lon="1.84468">
        <ele>1165</ele>
        <time>2018-07-29T06:33:14Z</time>
      </trkpt>
      <trkpt lat="42.6555" lon="1.84486">
        <ele>1167</ele>
        <time>2018-07-29T06:33:36Z</time>
      </trkpt>
      <trkpt lat="42.65546" lon="1.84502">
        <ele>1175</ele>
        <time>2018-07-29T06:33:56Z</time>
      </trkpt>
      <trkpt lat="42.65544" lon="1.8452">
        <ele>1176</ele>
        <time>2018-07-29T06:34:13Z</time>
      </trkpt>
      <trkpt lat="42.65543" lon="1.84536">
        <ele>1177</ele>
        <time>2018-07-29T06:34:31Z</time>
      </trkpt>
      <trkpt lat="42.65547" lon="1.84553">
        <ele>1178</ele>
        <time>2018-07-29T06:34:48Z</time>
      </trkpt>
      <trkpt lat="42.65545" lon="1.8457">
        <ele>1179</ele>
        <time>2018-07-29T06:35:09Z</time>
      </trkpt>
      <trkpt lat="42.65536" lon="1.84572">
        <ele>1179</ele>
        <time>2018-07-29T06:35:23Z</time>
      </trkpt>
      <trkpt lat="42.65526" lon="1.84576">
        <ele>1179</ele>
        <time>2018-07-29T06:35:35Z</time>
      </trkpt>
      <trkpt lat="42.65517" lon="1.8458">
        <ele>1180</ele>
        <time>2018-07-29T06:35:48Z</time>
      </trkpt>
      <trkpt lat="42.65505" lon="1.84584">
        <ele>1184</ele>
        <time>2018-07-29T06:36:01Z</time>
      </trkpt>
      <trkpt lat="42.65494" lon="1.84584">
        <ele>1183</ele>
        <time>2018-07-29T06:36:10Z</time>
      </trkpt>
      <trkpt lat="42.65483" lon="1.84582">
        <ele>1179</ele>
        <time>2018-07-29T06:36:21Z</time>
      </trkpt>
      <trkpt lat="42.65472" lon="1.84582">
        <ele>1177</ele>
        <time>2018-07-29T06:36:30Z</time>
      </trkpt>
      <trkpt lat="42.65462" lon="1.8459">
        <ele>1183</ele>
        <time>2018-07-29T06:36:41Z</time>
      </trkpt>
      <trkpt lat="42.65453" lon="1.84604">
        <ele>1183</ele>
        <time>2018-07-29T06:36:50Z</time>
      </trkpt>
      <trkpt lat="42.65456" lon="1.84617">
        <ele>1184</ele>
        <time>2018-07-29T06:37:04Z</time>
      </trkpt>
      <trkpt lat="42.65459" lon="1.84633">
        <ele>1186</ele>
        <time>2018-07-29T06:37:22Z</time>
      </trkpt>
      <trkpt lat="42.65451" lon="1.84646">
        <ele>1186</ele>
        <time>2018-07-29T06:37:40Z</time>
      </trkpt>
      <trkpt lat="42.65444" lon="1.84662">
        <ele>1186</ele>
        <time>2018-07-29T06:37:56Z</time>
      </trkpt>
      <trkpt lat="42.65437" lon="1.84681">
        <ele>1194</ele>
        <time>2018-07-29T06:38:16Z</time>
      </trkpt>
      <trkpt lat="42.65438" lon="1.8471">
        <ele>1197</ele>
        <time>2018-07-29T06:38:47Z</time>
      </trkpt>
      <trkpt lat="42.65442" lon="1.84732">
        <ele>1199</ele>
        <time>2018-07-29T06:39:11Z</time>
      </trkpt>
      <trkpt lat="42.6544" lon="1.84751">
        <ele>1206</ele>
        <time>2018-07-29T06:39:32Z</time>
      </trkpt>
      <trkpt lat="42.65434" lon="1.84768">
        <ele>1207</ele>
        <time>2018-07-29T06:39:51Z</time>
      </trkpt>
      <trkpt lat="42.6542" lon="1.84785">
        <ele>1208</ele>
        <time>2018-07-29T06:40:10Z</time>
      </trkpt>
      <trkpt lat="42.65411" lon="1.84806">
        <ele>1205</ele>
        <time>2018-07-29T06:40:28Z</time>
      </trkpt>
      <trkpt lat="42.65406" lon="1.84828">
        <ele>1207</ele>
        <time>2018-07-29T06:40:47Z</time>
      </trkpt>
      <trkpt lat="42.65388" lon="1.8486">
        <ele>1214</ele>
        <time>2018-07-29T06:41:19Z</time>
      </trkpt>
      <trkpt lat="42.65373" lon="1.84884">
        <ele>1216</ele>
        <time>2018-07-29T06:41:51Z</time>
      </trkpt>
      <trkpt lat="42.65353" lon="1.84901">
        <ele>1217</ele>
        <time>2018-07-29T06:43:45Z</time>
      </trkpt>
      <trkpt lat="42.65338" lon="1.84918">
        <ele>1222</ele>
        <time>2018-07-29T06:44:32Z</time>
      </trkpt>
      <trkpt lat="42.65323" lon="1.8494">
        <ele>1230</ele>
        <time>2018-07-29T06:45:15Z</time>
      </trkpt>
      <trkpt lat="42.65312" lon="1.84959">
        <ele>1235</ele>
        <time>2018-07-29T06:45:45Z</time>
      </trkpt>
      <trkpt lat="42.65303" lon="1.84968">
        <ele>1236</ele>
        <time>2018-07-29T06:46:11Z</time>
      </trkpt>
      <trkpt lat="42.65291" lon="1.84988">
        <ele>1239</ele>
        <time>2018-07-29T06:46:47Z</time>
      </trkpt>
      <trkpt lat="42.65278" lon="1.84995">
        <ele>1239</ele>
        <time>2018-07-29T06:47:11Z</time>
      </trkpt>
      <trkpt lat="42.65262" lon="1.85011">
        <ele>1254</ele>
        <time>2018-07-29T06:47:43Z</time>
      </trkpt>
      <trkpt lat="42.65247" lon="1.85026">
        <ele>1258</ele>
        <time>2018-07-29T06:48:15Z</time>
      </trkpt>
      <trkpt lat="42.6524" lon="1.85043">
        <ele>1263</ele>
        <time>2018-07-29T06:48:43Z</time>
      </trkpt>
      <trkpt lat="42.65228" lon="1.85049">
        <ele>1264</ele>
        <time>2018-07-29T06:49:09Z</time>
      </trkpt>
      <trkpt lat="42.65219" lon="1.85064">
        <ele>1267</ele>
        <time>2018-07-29T06:49:40Z</time>
      </trkpt>
      <trkpt lat="42.65215" lon="1.85082">
        <ele>1269</ele>
        <time>2018-07-29T06:50:09Z</time>
      </trkpt>
      <trkpt lat="42.65211" lon="1.85099">
        <ele>1289</ele>
        <time>2018-07-29T06:50:34Z</time>
      </trkpt>
      <trkpt lat="42.65217" lon="1.85107">
        <ele>1290</ele>
        <time>2018-07-29T06:52:04Z</time>
      </trkpt>
      <trkpt lat="42.65205" lon="1.85117">
        <ele>1292</ele>
        <time>2018-07-29T06:53:05Z</time>
      </trkpt>
      <trkpt lat="42.65194" lon="1.85112">
        <ele>1291</ele>
        <time>2018-07-29T06:53:45Z</time>
      </trkpt>
      <trkpt lat="42.65185" lon="1.85121">
        <ele>1293</ele>
        <time>2018-07-29T06:54:26Z</time>
      </trkpt>
      <trkpt lat="42.65189" lon="1.8516">
        <ele>1300</ele>
        <time>2018-07-29T06:55:32Z</time>
      </trkpt>
      <trkpt lat="42.65181" lon="1.8518">
        <ele>1317</ele>
        <time>2018-07-29T06:56:14Z</time>
      </trkpt>
      <trkpt lat="42.65184" lon="1.85197">
        <ele>1321</ele>
        <time>2018-07-29T06:56:59Z</time>
      </trkpt>
      <trkpt lat="42.65193" lon="1.85208">
        <ele>1324</ele>
        <time>2018-07-29T06:57:37Z</time>
      </trkpt>
      <trkpt lat="42.65173" lon="1.85213">
        <ele>1325</ele>
        <time>2018-07-29T06:58:12Z</time>
      </trkpt>
      <trkpt lat="42.65153" lon="1.85223">
        <ele>1324</ele>
        <time>2018-07-29T06:58:38Z</time>
      </trkpt>
      <trkpt lat="42.65136" lon="1.85226">
        <ele>1323</ele>
        <time>2018-07-29T06:59:05Z</time>
      </trkpt>
      <trkpt lat="42.65117" lon="1.85238">
        <ele>1324</ele>
        <time>2018-07-29T06:59:30Z</time>
      </trkpt>
      <trkpt lat="42.65101" lon="1.85263">
        <ele>1340</ele>
        <time>2018-07-29T07:00:14Z</time>
      </trkpt>
      <trkpt lat="42.65086" lon="1.8527">
        <ele>1340</ele>
        <time>2018-07-29T07:00:45Z</time>
      </trkpt>
      <trkpt lat="42.65065" lon="1.85284">
        <ele>1340</ele>
        <time>2018-07-29T07:01:19Z</time>
      </trkpt>
      <trkpt lat="42.65051" lon="1.8531">
        <ele>1343</ele>
        <time>2018-07-29T07:01:53Z</time>
      </trkpt>
      <trkpt lat="42.65039" lon="1.85339">
        <ele>1357</ele>
        <time>2018-07-29T07:02:32Z</time>
      </trkpt>
      <trkpt lat="42.65026" lon="1.8536">
        <ele>1357</ele>
        <time>2018-07-29T07:03:08Z</time>
      </trkpt>
      <trkpt lat="42.65021" lon="1.85387">
        <ele>1361</ele>
        <time>2018-07-29T07:03:38Z</time>
      </trkpt>
      <trkpt lat="42.65016" lon="1.85412">
        <ele>1362</ele>
        <time>2018-07-29T07:04:09Z</time>
      </trkpt>
      <trkpt lat="42.65009" lon="1.85435">
        <ele>1375</ele>
        <time>2018-07-29T07:04:37Z</time>
      </trkpt>
      <trkpt lat="42.65" lon="1.85454">
        <ele>1380</ele>
        <time>2018-07-29T07:05:05Z</time>
      </trkpt>
      <trkpt lat="42.64991" lon="1.8547">
        <ele>1372</ele>
        <time>2018-07-29T07:05:30Z</time>
      </trkpt>
      <trkpt lat="42.6498" lon="1.85478">
        <ele>1373</ele>
        <time>2018-07-29T07:05:47Z</time>
      </trkpt>
      <trkpt lat="42.64967" lon="1.85489">
        <ele>1372</ele>
        <time>2018-07-29T07:06:04Z</time>
      </trkpt>
      <trkpt lat="42.64958" lon="1.85499">
        <ele>1371</ele>
        <time>2018-07-29T07:06:19Z</time>
      </trkpt>
      <trkpt lat="42.64948" lon="1.85511">
        <ele>1380</ele>
        <time>2018-07-29T07:06:33Z</time>
      </trkpt>
      <trkpt lat="42.64944" lon="1.85529">
        <ele>1382</ele>
        <time>2018-07-29T07:06:52Z</time>
      </trkpt>
      <trkpt lat="42.64943" lon="1.85551">
        <ele>1384</ele>
        <time>2018-07-29T07:07:11Z</time>
      </trkpt>
      <trkpt lat="42.64933" lon="1.85572">
        <ele>1384</ele>
        <time>2018-07-29T07:07:34Z</time>
      </trkpt>
      <trkpt lat="42.64928" lon="1.85589">
        <ele>1392</ele>
        <time>2018-07-29T07:07:50Z</time>
      </trkpt>
      <trkpt lat="42.64919" lon="1.85602">
        <ele>1396</ele>
        <time>2018-07-29T07:08:08Z</time>
      </trkpt>
      <trkpt lat="42.64908" lon="1.85617">
        <ele>1387</ele>
        <time>2018-07-29T07:08:27Z</time>
      </trkpt>
      <trkpt lat="42.64902" lon="1.85629">
        <ele>1388</ele>
        <time>2018-07-29T07:08:43Z</time>
      </trkpt>
      <trkpt lat="42.64895" lon="1.85648">
        <ele>1391</ele>
        <time>2018-07-29T07:09:06Z</time>
      </trkpt>
      <trkpt lat="42.64877" lon="1.85675">
        <ele>1400</ele>
        <time>2018-07-29T07:09:35Z</time>
      </trkpt>
      <trkpt lat="42.64855" lon="1.85708">
        <ele>1400</ele>
        <time>2018-07-29T07:10:26Z</time>
      </trkpt>
      <trkpt lat="42.64838" lon="1.85726">
        <ele>1401</ele>
        <time>2018-07-29T07:10:49Z</time>
      </trkpt>
      <trkpt lat="42.64822" lon="1.8574">
        <ele>1396</ele>
        <time>2018-07-29T07:11:11Z</time>
      </trkpt>
      <trkpt lat="42.64799" lon="1.85753">
        <ele>1405</ele>
        <time>2018-07-29T07:11:47Z</time>
      </trkpt>
      <trkpt lat="42.64785" lon="1.8577">
        <ele>1406</ele>
        <time>2018-07-29T07:12:26Z</time>
      </trkpt>
      <trkpt lat="42.6477" lon="1.85777">
        <ele>1406</ele>
        <time>2018-07-29T07:12:59Z</time>
      </trkpt>
      <trkpt lat="42.6476" lon="1.85797">
        <ele>1409</ele>
        <time>2018-07-29T07:13:24Z</time>
      </trkpt>
      <trkpt lat="42.6475" lon="1.85807">
        <ele>1412</ele>
        <time>2018-07-29T07:13:48Z</time>
      </trkpt>
      <trkpt lat="42.6474" lon="1.85833">
        <ele>1413</ele>
        <time>2018-07-29T07:14:21Z</time>
      </trkpt>
      <trkpt lat="42.64727" lon="1.85858">
        <ele>1424</ele>
        <time>2018-07-29T07:15:06Z</time>
      </trkpt>
      <trkpt lat="42.64719" lon="1.85877">
        <ele>1427</ele>
        <time>2018-07-29T07:15:33Z</time>
      </trkpt>
      <trkpt lat="42.64707" lon="1.85895">
        <ele>1428</ele>
        <time>2018-07-29T07:15:59Z</time>
      </trkpt>
      <trkpt lat="42.64696" lon="1.85904">
        <ele>1428</ele>
        <time>2018-07-29T07:16:30Z</time>
      </trkpt>
      <trkpt lat="42.64681" lon="1.85909">
        <ele>1428</ele>
        <time>2018-07-29T07:17:02Z</time>
      </trkpt>
      <trkpt lat="42.64677" lon="1.85915">
        <ele>1428</ele>
        <time>2018-07-29T07:17:33Z</time>
      </trkpt>
      <trkpt lat="42.64669" lon="1.85925">
        <ele>1435</ele>
        <time>2018-07-29T07:17:53Z</time>
      </trkpt>
      <trkpt lat="42.64668" lon="1.85938">
        <ele>1441</ele>
        <time>2018-07-29T07:19:02Z</time>
      </trkpt>
      <trkpt lat="42.6466" lon="1.85944">
        <ele>1441</ele>
        <time>2018-07-29T07:20:01Z</time>
      </trkpt>
      <trkpt lat="42.64648" lon="1.85955">
        <ele>1445</ele>
        <time>2018-07-29T07:20:31Z</time>
      </trkpt>
      <trkpt lat="42.6464" lon="1.85975">
        <ele>1448</ele>
        <time>2018-07-29T07:20:54Z</time>
      </trkpt>
      <trkpt lat="42.64632" lon="1.86004">
        <ele>1464</ele>
        <time>2018-07-29T07:21:27Z</time>
      </trkpt>
      <trkpt lat="42.64627" lon="1.86014">
        <ele>1465</ele>
        <time>2018-07-29T07:21:49Z</time>
      </trkpt>
      <trkpt lat="42.64616" lon="1.86019">
        <ele>1465</ele>
        <time>2018-07-29T07:22:12Z</time>
      </trkpt>
      <trkpt lat="42.64608" lon="1.86016">
        <ele>1463</ele>
        <time>2018-07-29T07:22:34Z</time>
      </trkpt>
      <trkpt lat="42.64603" lon="1.86028">
        <ele>1465</ele>
        <time>2018-07-29T07:23:01Z</time>
      </trkpt>
      <trkpt lat="42.64597" lon="1.86044">
        <ele>1469</ele>
        <time>2018-07-29T07:23:32Z</time>
      </trkpt>
      <trkpt lat="42.64581" lon="1.86063">
        <ele>1475</ele>
        <time>2018-07-29T07:24:09Z</time>
      </trkpt>
      <trkpt lat="42.64561" lon="1.86096">
        <ele>1488</ele>
        <time>2018-07-29T07:25:17Z</time>
      </trkpt>
      <trkpt lat="42.64546" lon="1.86116">
        <ele>1492</ele>
        <time>2018-07-29T07:25:59Z</time>
      </trkpt>
      <trkpt lat="42.64534" lon="1.86129">
        <ele>1494</ele>
        <time>2018-07-29T07:26:25Z</time>
      </trkpt>
      <trkpt lat="42.64527" lon="1.86151">
        <ele>1496</ele>
        <time>2018-07-29T07:26:52Z</time>
      </trkpt>
      <trkpt lat="42.64522" lon="1.86172">
        <ele>1513</ele>
        <time>2018-07-29T07:27:27Z</time>
      </trkpt>
      <trkpt lat="42.64516" lon="1.86191">
        <ele>1516</ele>
        <time>2018-07-29T07:28:03Z</time>
      </trkpt>
      <trkpt lat="42.64498" lon="1.86199">
        <ele>1513</ele>
        <time>2018-07-29T07:28:36Z</time>
      </trkpt>
      <trkpt lat="42.64484" lon="1.86206">
        <ele>1514</ele>
        <time>2018-07-29T07:29:18Z</time>
      </trkpt>
      <trkpt lat="42.64476" lon="1.86225">
        <ele>1518</ele>
        <time>2018-07-29T07:29:46Z</time>
      </trkpt>
      <trkpt lat="42.64459" lon="1.8623">
        <ele>1517</ele>
        <time>2018-07-29T07:30:05Z</time>
      </trkpt>
      <trkpt lat="42.64447" lon="1.86227">
        <ele>1516</ele>
        <time>2018-07-29T07:30:18Z</time>
      </trkpt>
      <trkpt lat="42.64436" lon="1.86229">
        <ele>1516</ele>
        <time>2018-07-29T07:30:30Z</time>
      </trkpt>
      <trkpt lat="42.64425" lon="1.86229">
        <ele>1516</ele>
        <time>2018-07-29T07:30:53Z</time>
      </trkpt>
      <trkpt lat="42.64411" lon="1.86227">
        <ele>1517</ele>
        <time>2018-07-29T07:31:20Z</time>
      </trkpt>
      <trkpt lat="42.64395" lon="1.86231">
        <ele>1518</ele>
        <time>2018-07-29T07:31:38Z</time>
      </trkpt>
      <trkpt lat="42.64385" lon="1.86233">
        <ele>1518</ele>
        <time>2018-07-29T07:31:52Z</time>
      </trkpt>
      <trkpt lat="42.64369" lon="1.86238">
        <ele>1519</ele>
        <time>2018-07-29T07:32:15Z</time>
      </trkpt>
      <trkpt lat="42.6435" lon="1.86244">
        <ele>1521</ele>
        <time>2018-07-29T07:32:49Z</time>
      </trkpt>
      <trkpt lat="42.64335" lon="1.8625">
        <ele>1524</ele>
        <time>2018-07-29T07:33:06Z</time>
      </trkpt>
      <trkpt lat="42.64317" lon="1.86259">
        <ele>1532</ele>
        <time>2018-07-29T07:33:34Z</time>
      </trkpt>
      <trkpt lat="42.64302" lon="1.8626">
        <ele>1534</ele>
        <time>2018-07-29T07:34:13Z</time>
      </trkpt>
      <trkpt lat="42.64286" lon="1.86263">
        <ele>1536</ele>
        <time>2018-07-29T07:34:35Z</time>
      </trkpt>
      <trkpt lat="42.64272" lon="1.86272">
        <ele>1537</ele>
        <time>2018-07-29T07:34:58Z</time>
      </trkpt>
      <trkpt lat="42.64256" lon="1.86266">
        <ele>1535</ele>
        <time>2018-07-29T07:35:28Z</time>
      </trkpt>
      <trkpt lat="42.64245" lon="1.86266">
        <ele>1540</ele>
        <time>2018-07-29T07:35:46Z</time>
      </trkpt>
      <trkpt lat="42.64235" lon="1.86271">
        <ele>1543</ele>
        <time>2018-07-29T07:36:03Z</time>
      </trkpt>
      <trkpt lat="42.6422" lon="1.86278">
        <ele>1547</ele>
        <time>2018-07-29T07:36:23Z</time>
      </trkpt>
      <trkpt lat="42.6421" lon="1.86281">
        <ele>1548</ele>
        <time>2018-07-29T07:36:39Z</time>
      </trkpt>
      <trkpt lat="42.64197" lon="1.86284">
        <ele>1549</ele>
        <time>2018-07-29T07:37:04Z</time>
      </trkpt>
      <trkpt lat="42.64183" lon="1.86281">
        <ele>1550</ele>
        <time>2018-07-29T07:37:21Z</time>
      </trkpt>
      <trkpt lat="42.64173" lon="1.86289">
        <ele>1551</ele>
        <time>2018-07-29T07:37:36Z</time>
      </trkpt>
      <trkpt lat="42.6417" lon="1.86301">
        <ele>1553</ele>
        <time>2018-07-29T07:38:01Z</time>
      </trkpt>
      <trkpt lat="42.64157" lon="1.86305">
        <ele>1564</ele>
        <time>2018-07-29T07:38:20Z</time>
      </trkpt>
      <trkpt lat="42.64148" lon="1.86316">
        <ele>1564</ele>
        <time>2018-07-29T07:38:44Z</time>
      </trkpt>
      <trkpt lat="42.64141" lon="1.86325">
        <ele>1565</ele>
        <time>2018-07-29T07:39:27Z</time>
      </trkpt>
      <trkpt lat="42.64129" lon="1.86341">
        <ele>1576</ele>
        <time>2018-07-29T07:39:48Z</time>
      </trkpt>
      <trkpt lat="42.6412" lon="1.86362">
        <ele>1579</ele>
        <time>2018-07-29T07:40:19Z</time>
      </trkpt>
      <trkpt lat="42.64113" lon="1.86372">
        <ele>1581</ele>
        <time>2018-07-29T07:40:49Z</time>
      </trkpt>
      <trkpt lat="42.64097" lon="1.86375">
        <ele>1582</ele>
        <time>2018-07-29T07:41:17Z</time>
      </trkpt>
      <trkpt lat="42.64089" lon="1.86393">
        <ele>1585</ele>
        <time>2018-07-29T07:41:42Z</time>
      </trkpt>
      <trkpt lat="42.64084" lon="1.86395">
        <ele>1586</ele>
        <time>2018-07-29T07:42:00Z</time>
      </trkpt>
      <trkpt lat="42.64075" lon="1.86402">
        <ele>1593</ele>
        <time>2018-07-29T07:42:27Z</time>
      </trkpt>
      <trkpt lat="42.6407" lon="1.86405">
        <ele>1593</ele>
        <time>2018-07-29T07:42:51Z</time>
      </trkpt>
      <trkpt lat="42.64066" lon="1.8641">
        <ele>1594</ele>
        <time>2018-07-29T07:43:21Z</time>
      </trkpt>
      <trkpt lat="42.64068" lon="1.86417">
        <ele>1594</ele>
        <time>2018-07-29T07:44:05Z</time>
      </trkpt>
      <trkpt lat="42.64062" lon="1.86419">
        <ele>1607</ele>
        <time>2018-07-29T07:44:37Z</time>
      </trkpt>
      <trkpt lat="42.64059" lon="1.86428">
        <ele>1609</ele>
        <time>2018-07-29T07:45:04Z</time>
      </trkpt>
      <trkpt lat="42.6404" lon="1.86429">
        <ele>1612</ele>
        <time>2018-07-29T07:45:37Z</time>
      </trkpt>
      <trkpt lat="42.64027" lon="1.86429">
        <ele>1612</ele>
        <time>2018-07-29T07:46:01Z</time>
      </trkpt>
      <trkpt lat="42.64016" lon="1.86434">
        <ele>1613</ele>
        <time>2018-07-29T07:46:37Z</time>
      </trkpt>
      <trkpt lat="42.64009" lon="1.86438">
        <ele>1613</ele>
        <time>2018-07-29T07:47:09Z</time>
      </trkpt>
      <trkpt lat="42.63988" lon="1.86444">
        <ele>1618</ele>
        <time>2018-07-29T07:47:25Z</time>
      </trkpt>
      <trkpt lat="42.63984" lon="1.86458">
        <ele>1621</ele>
        <time>2018-07-29T07:47:38Z</time>
      </trkpt>
      <trkpt lat="42.63972" lon="1.86475">
        <ele>1623</ele>
        <time>2018-07-29T07:47:57Z</time>
      </trkpt>
      <trkpt lat="42.63971" lon="1.86493">
        <ele>1623</ele>
        <time>2018-07-29T07:48:13Z</time>
      </trkpt>
      <trkpt lat="42.63965" lon="1.86512">
        <ele>1632</ele>
        <time>2018-07-29T07:48:39Z</time>
      </trkpt>
      <trkpt lat="42.63944" lon="1.86537">
        <ele>1634</ele>
        <time>2018-07-29T07:48:56Z</time>
      </trkpt>
      <trkpt lat="42.63931" lon="1.86583">
        <ele>1636</ele>
        <time>2018-07-29T07:49:19Z</time>
      </trkpt>
      <trkpt lat="42.63912" lon="1.86591">
        <ele>1643</ele>
        <time>2018-07-29T07:49:42Z</time>
      </trkpt>
      <trkpt lat="42.63905" lon="1.866">
        <ele>1649</ele>
        <time>2018-07-29T07:51:37Z</time>
      </trkpt>
      <trkpt lat="42.63896" lon="1.86609">
        <ele>1654</ele>
        <time>2018-07-29T07:52:07Z</time>
      </trkpt>
      <trkpt lat="42.63891" lon="1.86618">
        <ele>1657</ele>
        <time>2018-07-29T07:52:34Z</time>
      </trkpt>
      <trkpt lat="42.63877" lon="1.86626">
        <ele>1659</ele>
        <time>2018-07-29T07:52:58Z</time>
      </trkpt>
      <trkpt lat="42.63868" lon="1.86635">
        <ele>1661</ele>
        <time>2018-07-29T07:53:30Z</time>
      </trkpt>
      <trkpt lat="42.63857" lon="1.86642">
        <ele>1663</ele>
        <time>2018-07-29T07:54:00Z</time>
      </trkpt>
      <trkpt lat="42.63852" lon="1.86653">
        <ele>1665</ele>
        <time>2018-07-29T07:54:25Z</time>
      </trkpt>
      <trkpt lat="42.63844" lon="1.86667">
        <ele>1681</ele>
        <time>2018-07-29T07:54:55Z</time>
      </trkpt>
      <trkpt lat="42.63827" lon="1.86677">
        <ele>1682</ele>
        <time>2018-07-29T07:55:28Z</time>
      </trkpt>
      <trkpt lat="42.63814" lon="1.86685">
        <ele>1689</ele>
        <time>2018-07-29T07:56:00Z</time>
      </trkpt>
      <trkpt lat="42.638" lon="1.86687">
        <ele>1692</ele>
        <time>2018-07-29T07:56:12Z</time>
      </trkpt>
      <trkpt lat="42.63785" lon="1.86684">
        <ele>1693</ele>
        <time>2018-07-29T07:56:32Z</time>
      </trkpt>
      <trkpt lat="42.63782" lon="1.86699">
        <ele>1695</ele>
        <time>2018-07-29T07:56:58Z</time>
      </trkpt>
      <trkpt lat="42.63783" lon="1.86706">
        <ele>1696</ele>
        <time>2018-07-29T07:57:21Z</time>
      </trkpt>
      <trkpt lat="42.63773" lon="1.8671">
        <ele>1697</ele>
        <time>2018-07-29T07:57:37Z</time>
      </trkpt>
      <trkpt lat="42.6376" lon="1.86709">
        <ele>1697</ele>
        <time>2018-07-29T07:57:51Z</time>
      </trkpt>
      <trkpt lat="42.63751" lon="1.86713">
        <ele>1699</ele>
        <time>2018-07-29T07:58:11Z</time>
      </trkpt>
      <trkpt lat="42.63735" lon="1.86715">
        <ele>1702</ele>
        <time>2018-07-29T07:58:25Z</time>
      </trkpt>
      <trkpt lat="42.63725" lon="1.86719">
        <ele>1702</ele>
        <time>2018-07-29T07:58:32Z</time>
      </trkpt>
      <trkpt lat="42.63717" lon="1.86719">
        <ele>1702</ele>
        <time>2018-07-29T07:58:38Z</time>
      </trkpt>
      <trkpt lat="42.63705" lon="1.86723">
        <ele>1702</ele>
        <time>2018-07-29T07:58:46Z</time>
      </trkpt>
      <trkpt lat="42.63697" lon="1.86724">
        <ele>1702</ele>
        <time>2018-07-29T07:59:01Z</time>
      </trkpt>
      <trkpt lat="42.63691" lon="1.86729">
        <ele>1702</ele>
        <time>2018-07-29T07:59:12Z</time>
      </trkpt>
      <trkpt lat="42.63683" lon="1.86733">
        <ele>1702</ele>
        <time>2018-07-29T07:59:18Z</time>
      </trkpt>
      <trkpt lat="42.63678" lon="1.86739">
        <ele>1702</ele>
        <time>2018-07-29T07:59:37Z</time>
      </trkpt>
      <trkpt lat="42.6367" lon="1.86743">
        <ele>1701</ele>
        <time>2018-07-29T07:59:48Z</time>
      </trkpt>
      <trkpt lat="42.63666" lon="1.86747">
        <ele>1703</ele>
        <time>2018-07-29T08:00:03Z</time>
      </trkpt>
      <trkpt lat="42.63655" lon="1.86751">
        <ele>1707</ele>
        <time>2018-07-29T08:00:17Z</time>
      </trkpt>
      <trkpt lat="42.63649" lon="1.86764">
        <ele>1711</ele>
        <time>2018-07-29T08:00:35Z</time>
      </trkpt>
      <trkpt lat="42.63639" lon="1.86759">
        <ele>1713</ele>
        <time>2018-07-29T08:01:14Z</time>
      </trkpt>
      <trkpt lat="42.63624" lon="1.86763">
        <ele>1715</ele>
        <time>2018-07-29T08:01:28Z</time>
      </trkpt>
      <trkpt lat="42.63612" lon="1.86763">
        <ele>1715</ele>
        <time>2018-07-29T08:01:34Z</time>
      </trkpt>
      <trkpt lat="42.63605" lon="1.86776">
        <ele>1716</ele>
        <time>2018-07-29T08:01:40Z</time>
      </trkpt>
      <trkpt lat="42.63598" lon="1.86785">
        <ele>1717</ele>
        <time>2018-07-29T08:01:47Z</time>
      </trkpt>
      <trkpt lat="42.63583" lon="1.86796">
        <ele>1723</ele>
        <time>2018-07-29T08:02:26Z</time>
      </trkpt>
      <trkpt lat="42.63574" lon="1.86798">
        <ele>1723</ele>
        <time>2018-07-29T08:04:34Z</time>
      </trkpt>
      <trkpt lat="42.6357" lon="1.86803">
        <ele>1723</ele>
        <time>2018-07-29T08:06:45Z</time>
      </trkpt>
      <trkpt lat="42.63567" lon="1.86809">
        <ele>1723</ele>
        <time>2018-07-29T08:08:21Z</time>
      </trkpt>
      <trkpt lat="42.63559" lon="1.86818">
        <ele>1724</ele>
        <time>2018-07-29T08:09:35Z</time>
      </trkpt>
      <trkpt lat="42.6354" lon="1.86829">
        <ele>1724</ele>
        <time>2018-07-29T08:09:51Z</time>
      </trkpt>
      <trkpt lat="42.63532" lon="1.86832">
        <ele>1724</ele>
        <time>2018-07-29T08:10:06Z</time>
      </trkpt>
      <trkpt lat="42.63526" lon="1.86837">
        <ele>1727</ele>
        <time>2018-07-29T08:10:19Z</time>
      </trkpt>
      <trkpt lat="42.63518" lon="1.86842">
        <ele>1727</ele>
        <time>2018-07-29T08:10:33Z</time>
      </trkpt>
      <trkpt lat="42.63511" lon="1.86848">
        <ele>1727</ele>
        <time>2018-07-29T08:10:42Z</time>
      </trkpt>
      <trkpt lat="42.63506" lon="1.86854">
        <ele>1727</ele>
        <time>2018-07-29T08:10:50Z</time>
      </trkpt>
      <trkpt lat="42.63503" lon="1.86859">
        <ele>1728</ele>
        <time>2018-07-29T08:10:56Z</time>
      </trkpt>
      <trkpt lat="42.63496" lon="1.86866">
        <ele>1731</ele>
        <time>2018-07-29T08:11:06Z</time>
      </trkpt>
      <trkpt lat="42.6348" lon="1.86868">
        <ele>1732</ele>
        <time>2018-07-29T08:11:25Z</time>
      </trkpt>
      <trkpt lat="42.63477" lon="1.86872">
        <ele>1733</ele>
        <time>2018-07-29T08:11:42Z</time>
      </trkpt>
      <trkpt lat="42.6347" lon="1.86876">
        <ele>1733</ele>
        <time>2018-07-29T08:11:52Z</time>
      </trkpt>
      <trkpt lat="42.63463" lon="1.86878">
        <ele>1734</ele>
        <time>2018-07-29T08:12:02Z</time>
      </trkpt>
      <trkpt lat="42.63456" lon="1.86884">
        <ele>1734</ele>
        <time>2018-07-29T08:12:19Z</time>
      </trkpt>
      <trkpt lat="42.63455" lon="1.86889">
        <ele>1735</ele>
        <time>2018-07-29T08:14:26Z</time>
      </trkpt>
      <trkpt lat="42.63441" lon="1.86889">
        <ele>1735</ele>
        <time>2018-07-29T08:14:34Z</time>
      </trkpt>
      <trkpt lat="42.63431" lon="1.869">
        <ele>1737</ele>
        <time>2018-07-29T08:14:47Z</time>
      </trkpt>
      <trkpt lat="42.63422" lon="1.86902">
        <ele>1737</ele>
        <time>2018-07-29T08:14:56Z</time>
      </trkpt>
      <trkpt lat="42.63409" lon="1.86909">
        <ele>1741</ele>
        <time>2018-07-29T08:15:14Z</time>
      </trkpt>
      <trkpt lat="42.63397" lon="1.86918">
        <ele>1744</ele>
        <time>2018-07-29T08:15:33Z</time>
      </trkpt>
      <trkpt lat="42.6338" lon="1.86927">
        <ele>1745</ele>
        <time>2018-07-29T08:16:02Z</time>
      </trkpt>
      <trkpt lat="42.63373" lon="1.86932">
        <ele>1745</ele>
        <time>2018-07-29T08:16:18Z</time>
      </trkpt>
      <trkpt lat="42.63349" lon="1.8694">
        <ele>1745</ele>
        <time>2018-07-29T08:17:12Z</time>
      </trkpt>
      <trkpt lat="42.63349" lon="1.86956">
        <ele>1745</ele>
        <time>2018-07-29T08:17:28Z</time>
      </trkpt>
      <trkpt lat="42.63347" lon="1.86971">
        <ele>1745</ele>
        <time>2018-07-29T08:17:42Z</time>
      </trkpt>
      <trkpt lat="42.63338" lon="1.86979">
        <ele>1745</ele>
        <time>2018-07-29T08:17:52Z</time>
      </trkpt>
      <trkpt lat="42.63328" lon="1.8698">
        <ele>1748</ele>
        <time>2018-07-29T08:18:02Z</time>
      </trkpt>
      <trkpt lat="42.63317" lon="1.86977">
        <ele>1749</ele>
        <time>2018-07-29T08:18:14Z</time>
      </trkpt>
      <trkpt lat="42.6331" lon="1.8698">
        <ele>1750</ele>
        <time>2018-07-29T08:18:39Z</time>
      </trkpt>
      <trkpt lat="42.63311" lon="1.86988">
        <ele>1749</ele>
        <time>2018-07-29T08:18:54Z</time>
      </trkpt>
      <trkpt lat="42.633" lon="1.86998">
        <ele>1751</ele>
        <time>2018-07-29T08:19:22Z</time>
      </trkpt>
      <trkpt lat="42.63296" lon="1.87012">
        <ele>1751</ele>
        <time>2018-07-29T08:19:48Z</time>
      </trkpt>
      <trkpt lat="42.6329" lon="1.8702">
        <ele>1752</ele>
        <time>2018-07-29T08:20:03Z</time>
      </trkpt>
      <trkpt lat="42.63283" lon="1.87026">
        <ele>1753</ele>
        <time>2018-07-29T08:20:19Z</time>
      </trkpt>
      <trkpt lat="42.63273" lon="1.87036">
        <ele>1753</ele>
        <time>2018-07-29T08:20:44Z</time>
      </trkpt>
      <trkpt lat="42.63276" lon="1.87049">
        <ele>1753</ele>
        <time>2018-07-29T08:21:01Z</time>
      </trkpt>
      <trkpt lat="42.63267" lon="1.87057">
        <ele>1753</ele>
        <time>2018-07-29T08:21:19Z</time>
      </trkpt>
      <trkpt lat="42.63262" lon="1.87067">
        <ele>1753</ele>
        <time>2018-07-29T08:21:33Z</time>
      </trkpt>
      <trkpt lat="42.63259" lon="1.87078">
        <ele>1753</ele>
        <time>2018-07-29T08:21:52Z</time>
      </trkpt>
      <trkpt lat="42.63255" lon="1.87092">
        <ele>1758</ele>
        <time>2018-07-29T08:22:07Z</time>
      </trkpt>
      <trkpt lat="42.6325" lon="1.87105">
        <ele>1764</ele>
        <time>2018-07-29T08:22:23Z</time>
      </trkpt>
      <trkpt lat="42.63244" lon="1.87113">
        <ele>1766</ele>
        <time>2018-07-29T08:22:35Z</time>
      </trkpt>
      <trkpt lat="42.63239" lon="1.87132">
        <ele>1770</ele>
        <time>2018-07-29T08:22:55Z</time>
      </trkpt>
      <trkpt lat="42.6322" lon="1.87137">
        <ele>1771</ele>
        <time>2018-07-29T08:23:14Z</time>
      </trkpt>
      <trkpt lat="42.63211" lon="1.87149">
        <ele>1772</ele>
        <time>2018-07-29T08:23:40Z</time>
      </trkpt>
      <trkpt lat="42.632" lon="1.87155">
        <ele>1773</ele>
        <time>2018-07-29T08:24:04Z</time>
      </trkpt>
      <trkpt lat="42.63194" lon="1.87168">
        <ele>1779</ele>
        <time>2018-07-29T08:24:23Z</time>
      </trkpt>
      <trkpt lat="42.63183" lon="1.87177">
        <ele>1778</ele>
        <time>2018-07-29T08:24:42Z</time>
      </trkpt>
      <trkpt lat="42.63169" lon="1.87187">
        <ele>1778</ele>
        <time>2018-07-29T08:25:12Z</time>
      </trkpt>
      <trkpt lat="42.63161" lon="1.87198">
        <ele>1785</ele>
        <time>2018-07-29T08:25:28Z</time>
      </trkpt>
      <trkpt lat="42.63157" lon="1.87213">
        <ele>1786</ele>
        <time>2018-07-29T08:25:45Z</time>
      </trkpt>
      <trkpt lat="42.63152" lon="1.87226">
        <ele>1785</ele>
        <time>2018-07-29T08:26:02Z</time>
      </trkpt>
      <trkpt lat="42.63149" lon="1.8724">
        <ele>1784</ele>
        <time>2018-07-29T08:26:30Z</time>
      </trkpt>
      <trkpt lat="42.63139" lon="1.87246">
        <ele>1787</ele>
        <time>2018-07-29T08:26:44Z</time>
      </trkpt>
      <trkpt lat="42.63133" lon="1.87256">
        <ele>1788</ele>
        <time>2018-07-29T08:27:06Z</time>
      </trkpt>
      <trkpt lat="42.63127" lon="1.87268">
        <ele>1790</ele>
        <time>2018-07-29T08:27:22Z</time>
      </trkpt>
      <trkpt lat="42.6312" lon="1.87276">
        <ele>1791</ele>
        <time>2018-07-29T08:27:40Z</time>
      </trkpt>
      <trkpt lat="42.6312" lon="1.8729">
        <ele>1791</ele>
        <time>2018-07-29T08:27:59Z</time>
      </trkpt>
      <trkpt lat="42.63114" lon="1.87305">
        <ele>1792</ele>
        <time>2018-07-29T08:28:15Z</time>
      </trkpt>
      <trkpt lat="42.63108" lon="1.87316">
        <ele>1792</ele>
        <time>2018-07-29T08:28:26Z</time>
      </trkpt>
      <trkpt lat="42.63103" lon="1.87328">
        <ele>1792</ele>
        <time>2018-07-29T08:28:36Z</time>
      </trkpt>
      <trkpt lat="42.63103" lon="1.87341">
        <ele>1795</ele>
        <time>2018-07-29T08:28:51Z</time>
      </trkpt>
      <trkpt lat="42.63107" lon="1.87359">
        <ele>1796</ele>
        <time>2018-07-29T08:29:05Z</time>
      </trkpt>
      <trkpt lat="42.63106" lon="1.87376">
        <ele>1797</ele>
        <time>2018-07-29T08:29:22Z</time>
      </trkpt>
      <trkpt lat="42.63102" lon="1.87392">
        <ele>1796</ele>
        <time>2018-07-29T08:29:37Z</time>
      </trkpt>
      <trkpt lat="42.63099" lon="1.87405">
        <ele>1795</ele>
        <time>2018-07-29T08:29:52Z</time>
      </trkpt>
      <trkpt lat="42.63095" lon="1.87419">
        <ele>1798</ele>
        <time>2018-07-29T08:30:10Z</time>
      </trkpt>
      <trkpt lat="42.63097" lon="1.87437">
        <ele>1802</ele>
        <time>2018-07-29T08:30:28Z</time>
      </trkpt>
      <trkpt lat="42.63097" lon="1.87452">
        <ele>1804</ele>
        <time>2018-07-29T08:30:45Z</time>
      </trkpt>
      <trkpt lat="42.63099" lon="1.87471">
        <ele>1806</ele>
        <time>2018-07-29T08:31:03Z</time>
      </trkpt>
      <trkpt lat="42.63099" lon="1.87486">
        <ele>1805</ele>
        <time>2018-07-29T08:31:24Z</time>
      </trkpt>
      <trkpt lat="42.63086" lon="1.87492">
        <ele>1801</ele>
        <time>2018-07-29T08:31:41Z</time>
      </trkpt>
      <trkpt lat="42.63079" lon="1.875">
        <ele>1800</ele>
        <time>2018-07-29T08:31:53Z</time>
      </trkpt>
      <trkpt lat="42.63079" lon="1.87515">
        <ele>1805</ele>
        <time>2018-07-29T08:32:10Z</time>
      </trkpt>
      <trkpt lat="42.63078" lon="1.87529">
        <ele>1809</ele>
        <time>2018-07-29T08:32:29Z</time>
      </trkpt>
      <trkpt lat="42.63077" lon="1.87545">
        <ele>1811</ele>
        <time>2018-07-29T08:32:49Z</time>
      </trkpt>
      <trkpt lat="42.63068" lon="1.87556">
        <ele>1812</ele>
        <time>2018-07-29T08:33:13Z</time>
      </trkpt>
      <trkpt lat="42.63065" lon="1.87575">
        <ele>1811</ele>
        <time>2018-07-29T08:33:37Z</time>
      </trkpt>
      <trkpt lat="42.63057" lon="1.87582">
        <ele>1813</ele>
        <time>2018-07-29T08:33:58Z</time>
      </trkpt>
      <trkpt lat="42.63061" lon="1.87594">
        <ele>1817</ele>
        <time>2018-07-29T08:34:23Z</time>
      </trkpt>
      <trkpt lat="42.63064" lon="1.87617">
        <ele>1820</ele>
        <time>2018-07-29T08:34:56Z</time>
      </trkpt>
      <trkpt lat="42.6306" lon="1.87629">
        <ele>1821</ele>
        <time>2018-07-29T08:35:18Z</time>
      </trkpt>
      <trkpt lat="42.63055" lon="1.8764">
        <ele>1822</ele>
        <time>2018-07-29T08:35:33Z</time>
      </trkpt>
      <trkpt lat="42.63046" lon="1.87653">
        <ele>1824</ele>
        <time>2018-07-29T08:35:55Z</time>
      </trkpt>
      <trkpt lat="42.6304" lon="1.87666">
        <ele>1826</ele>
        <time>2018-07-29T08:36:08Z</time>
      </trkpt>
      <trkpt lat="42.63039" lon="1.87684">
        <ele>1829</ele>
        <time>2018-07-29T08:36:21Z</time>
      </trkpt>
      <trkpt lat="42.63036" lon="1.877">
        <ele>1829</ele>
        <time>2018-07-29T08:36:34Z</time>
      </trkpt>
      <trkpt lat="42.63033" lon="1.87714">
        <ele>1829</ele>
        <time>2018-07-29T08:36:48Z</time>
      </trkpt>
      <trkpt lat="42.63028" lon="1.87731">
        <ele>1830</ele>
        <time>2018-07-29T08:37:06Z</time>
      </trkpt>
      <trkpt lat="42.63025" lon="1.87747">
        <ele>1830</ele>
        <time>2018-07-29T08:37:18Z</time>
      </trkpt>
      <trkpt lat="42.63026" lon="1.87762">
        <ele>1832</ele>
        <time>2018-07-29T08:37:31Z</time>
      </trkpt>
      <trkpt lat="42.63026" lon="1.87776">
        <ele>1832</ele>
        <time>2018-07-29T08:37:41Z</time>
      </trkpt>
      <trkpt lat="42.6302" lon="1.8779">
        <ele>1832</ele>
        <time>2018-07-29T08:37:52Z</time>
      </trkpt>
      <trkpt lat="42.63013" lon="1.87801">
        <ele>1832</ele>
        <time>2018-07-29T08:38:05Z</time>
      </trkpt>
      <trkpt lat="42.63007" lon="1.87816">
        <ele>1831</ele>
        <time>2018-07-29T08:38:20Z</time>
      </trkpt>
      <trkpt lat="42.63" lon="1.87827">
        <ele>1831</ele>
        <time>2018-07-29T08:38:34Z</time>
      </trkpt>
      <trkpt lat="42.62994" lon="1.87838">
        <ele>1830</ele>
        <time>2018-07-29T08:38:46Z</time>
      </trkpt>
      <trkpt lat="42.62983" lon="1.87843">
        <ele>1834</ele>
        <time>2018-07-29T08:39:01Z</time>
      </trkpt>
      <trkpt lat="42.62974" lon="1.87845">
        <ele>1836</ele>
        <time>2018-07-29T08:39:18Z</time>
      </trkpt>
      <trkpt lat="42.62965" lon="1.8783">
        <ele>1841</ele>
        <time>2018-07-29T08:39:35Z</time>
      </trkpt>
      <trkpt lat="42.62953" lon="1.87824">
        <ele>1844</ele>
        <time>2018-07-29T08:39:48Z</time>
      </trkpt>
      <trkpt lat="42.62943" lon="1.87822">
        <ele>1846</ele>
        <time>2018-07-29T08:40:01Z</time>
      </trkpt>
      <trkpt lat="42.62936" lon="1.8783">
        <ele>1847</ele>
        <time>2018-07-29T08:40:15Z</time>
      </trkpt>
      <trkpt lat="42.62929" lon="1.87839">
        <ele>1845</ele>
        <time>2018-07-29T08:40:28Z</time>
      </trkpt>
      <trkpt lat="42.62923" lon="1.8785">
        <ele>1844</ele>
        <time>2018-07-29T08:40:43Z</time>
      </trkpt>
      <trkpt lat="42.62915" lon="1.87859">
        <ele>1857</ele>
        <time>2018-07-29T08:40:59Z</time>
      </trkpt>
      <trkpt lat="42.62904" lon="1.87859">
        <ele>1858</ele>
        <time>2018-07-29T08:41:15Z</time>
      </trkpt>
      <trkpt lat="42.62894" lon="1.87857">
        <ele>1860</ele>
        <time>2018-07-29T08:41:30Z</time>
      </trkpt>
      <trkpt lat="42.62888" lon="1.87865">
        <ele>1861</ele>
        <time>2018-07-29T08:41:46Z</time>
      </trkpt>
      <trkpt lat="42.62878" lon="1.87866">
        <ele>1863</ele>
        <time>2018-07-29T08:42:05Z</time>
      </trkpt>
      <trkpt lat="42.62871" lon="1.87866">
        <ele>1865</ele>
        <time>2018-07-29T08:42:47Z</time>
      </trkpt>
      <trkpt lat="42.62874" lon="1.87872">
        <ele>1864</ele>
        <time>2018-07-29T08:55:48Z</time>
      </trkpt>
      <trkpt lat="42.62864" lon="1.87884">
        <ele>1865</ele>
        <time>2018-07-29T08:56:46Z</time>
      </trkpt>
      <trkpt lat="42.62857" lon="1.87895">
        <ele>1866</ele>
        <time>2018-07-29T08:57:11Z</time>
      </trkpt>
      <trkpt lat="42.62847" lon="1.879">
        <ele>1868</ele>
        <time>2018-07-29T08:57:38Z</time>
      </trkpt>
      <trkpt lat="42.62839" lon="1.87902">
        <ele>1870</ele>
        <time>2018-07-29T08:57:58Z</time>
      </trkpt>
      <trkpt lat="42.6283" lon="1.87906">
        <ele>1884</ele>
        <time>2018-07-29T08:58:21Z</time>
      </trkpt>
      <trkpt lat="42.62821" lon="1.87911">
        <ele>1886</ele>
        <time>2018-07-29T08:58:46Z</time>
      </trkpt>
      <trkpt lat="42.62812" lon="1.87915">
        <ele>1891</ele>
        <time>2018-07-29T08:59:12Z</time>
      </trkpt>
      <trkpt lat="42.62803" lon="1.87907">
        <ele>1896</ele>
        <time>2018-07-29T08:59:39Z</time>
      </trkpt>
      <trkpt lat="42.62792" lon="1.87904">
        <ele>1901</ele>
        <time>2018-07-29T09:00:05Z</time>
      </trkpt>
      <trkpt lat="42.62787" lon="1.87894">
        <ele>1903</ele>
        <time>2018-07-29T09:00:48Z</time>
      </trkpt>
      <trkpt lat="42.62783" lon="1.87884">
        <ele>1905</ele>
        <time>2018-07-29T09:01:23Z</time>
      </trkpt>
      <trkpt lat="42.62771" lon="1.87876">
        <ele>1908</ele>
        <time>2018-07-29T09:01:45Z</time>
      </trkpt>
      <trkpt lat="42.6276" lon="1.87869">
        <ele>1911</ele>
        <time>2018-07-29T09:02:14Z</time>
      </trkpt>
      <trkpt lat="42.62749" lon="1.87866">
        <ele>1939</ele>
        <time>2018-07-29T09:02:45Z</time>
      </trkpt>
      <trkpt lat="42.62736" lon="1.87856">
        <ele>1941</ele>
        <time>2018-07-29T09:03:23Z</time>
      </trkpt>
      <trkpt lat="42.62727" lon="1.87853">
        <ele>1942</ele>
        <time>2018-07-29T09:03:55Z</time>
      </trkpt>
      <trkpt lat="42.62717" lon="1.87847">
        <ele>1944</ele>
        <time>2018-07-29T09:04:26Z</time>
      </trkpt>
      <trkpt lat="42.62705" lon="1.87844">
        <ele>1947</ele>
        <time>2018-07-29T09:05:02Z</time>
      </trkpt>
      <trkpt lat="42.62704" lon="1.87835">
        <ele>1948</ele>
        <time>2018-07-29T09:05:31Z</time>
      </trkpt>
      <trkpt lat="42.6269" lon="1.87838">
        <ele>1951</ele>
        <time>2018-07-29T09:07:28Z</time>
      </trkpt>
      <trkpt lat="42.62693" lon="1.87826">
        <ele>1960</ele>
        <time>2018-07-29T09:07:47Z</time>
      </trkpt>
      <trkpt lat="42.62682" lon="1.87825">
        <ele>1961</ele>
        <time>2018-07-29T09:08:09Z</time>
      </trkpt>
      <trkpt lat="42.62671" lon="1.87821">
        <ele>1961</ele>
        <time>2018-07-29T09:08:26Z</time>
      </trkpt>
      <trkpt lat="42.6266" lon="1.87814">
        <ele>1975</ele>
        <time>2018-07-29T09:08:55Z</time>
      </trkpt>
      <trkpt lat="42.62651" lon="1.87811">
        <ele>1978</ele>
        <time>2018-07-29T09:09:19Z</time>
      </trkpt>
      <trkpt lat="42.62644" lon="1.87803">
        <ele>1982</ele>
        <time>2018-07-29T09:09:48Z</time>
      </trkpt>
      <trkpt lat="42.62629" lon="1.87804">
        <ele>1984</ele>
        <time>2018-07-29T09:10:42Z</time>
      </trkpt>
      <trkpt lat="42.62635" lon="1.87787">
        <ele>1986</ele>
        <time>2018-07-29T09:11:13Z</time>
      </trkpt>
      <trkpt lat="42.6262" lon="1.87778">
        <ele>1989</ele>
        <time>2018-07-29T09:11:47Z</time>
      </trkpt>
      <trkpt lat="42.62614" lon="1.87771">
        <ele>1990</ele>
        <time>2018-07-29T09:12:05Z</time>
      </trkpt>
      <trkpt lat="42.62607" lon="1.87763">
        <ele>1993</ele>
        <time>2018-07-29T09:12:29Z</time>
      </trkpt>
      <trkpt lat="42.62598" lon="1.87759">
        <ele>1996</ele>
        <time>2018-07-29T09:12:56Z</time>
      </trkpt>
      <trkpt lat="42.62592" lon="1.8775">
        <ele>1999</ele>
        <time>2018-07-29T09:13:22Z</time>
      </trkpt>
      <trkpt lat="42.62584" lon="1.87749">
        <ele>2005</ele>
        <time>2018-07-29T09:14:06Z</time>
      </trkpt>
      <trkpt lat="42.62574" lon="1.87741">
        <ele>2014</ele>
        <time>2018-07-29T09:14:29Z</time>
      </trkpt>
      <trkpt lat="42.62569" lon="1.87735">
        <ele>2018</ele>
        <time>2018-07-29T09:15:04Z</time>
      </trkpt>
      <trkpt lat="42.62563" lon="1.87728">
        <ele>2022</ele>
        <time>2018-07-29T09:15:38Z</time>
      </trkpt>
      <trkpt lat="42.6255" lon="1.87721">
        <ele>2026</ele>
        <time>2018-07-29T09:16:01Z</time>
      </trkpt>
      <trkpt lat="42.62545" lon="1.87707">
        <ele>2029</ele>
        <time>2018-07-29T09:16:40Z</time>
      </trkpt>
      <trkpt lat="42.62534" lon="1.87699">
        <ele>2031</ele>
        <time>2018-07-29T09:17:07Z</time>
      </trkpt>
      <trkpt lat="42.62526" lon="1.87696">
        <ele>2032</ele>
        <time>2018-07-29T09:17:24Z</time>
      </trkpt>
      <trkpt lat="42.62516" lon="1.8769">
        <ele>2034</ele>
        <time>2018-07-29T09:17:50Z</time>
      </trkpt>
      <trkpt lat="42.62504" lon="1.87685">
        <ele>2036</ele>
        <time>2018-07-29T09:18:13Z</time>
      </trkpt>
      <trkpt lat="42.62493" lon="1.87682">
        <ele>2042</ele>
        <time>2018-07-29T09:18:39Z</time>
      </trkpt>
      <trkpt lat="42.62498" lon="1.87676">
        <ele>2043</ele>
        <time>2018-07-29T09:19:03Z</time>
      </trkpt>
      <trkpt lat="42.62487" lon="1.87676">
        <ele>2042</ele>
        <time>2018-07-29T09:19:23Z</time>
      </trkpt>
      <trkpt lat="42.62478" lon="1.87679">
        <ele>2042</ele>
        <time>2018-07-29T09:19:43Z</time>
      </trkpt>
      <trkpt lat="42.62469" lon="1.87684">
        <ele>2041</ele>
        <time>2018-07-29T09:20:07Z</time>
      </trkpt>
      <trkpt lat="42.6246" lon="1.87676">
        <ele>2042</ele>
        <time>2018-07-29T09:20:29Z</time>
      </trkpt>
      <trkpt lat="42.62451" lon="1.87679">
        <ele>2042</ele>
        <time>2018-07-29T09:20:43Z</time>
      </trkpt>
      <trkpt lat="42.6244" lon="1.87675">
        <ele>2043</ele>
        <time>2018-07-29T09:21:00Z</time>
      </trkpt>
      <trkpt lat="42.62432" lon="1.87669">
        <ele>2044</ele>
        <time>2018-07-29T09:21:15Z</time>
      </trkpt>
      <trkpt lat="42.62421" lon="1.87668">
        <ele>2046</ele>
        <time>2018-07-29T09:21:33Z</time>
      </trkpt>
      <trkpt lat="42.62409" lon="1.87666">
        <ele>2051</ele>
        <time>2018-07-29T09:21:48Z</time>
      </trkpt>
      <trkpt lat="42.62396" lon="1.87659">
        <ele>2057</ele>
        <time>2018-07-29T09:22:03Z</time>
      </trkpt>
      <trkpt lat="42.62385" lon="1.87654">
        <ele>2059</ele>
        <time>2018-07-29T09:22:16Z</time>
      </trkpt>
      <trkpt lat="42.62376" lon="1.87649">
        <ele>2060</ele>
        <time>2018-07-29T09:22:29Z</time>
      </trkpt>
      <trkpt lat="42.62367" lon="1.87643">
        <ele>2061</ele>
        <time>2018-07-29T09:22:48Z</time>
      </trkpt>
      <trkpt lat="42.62361" lon="1.87634">
        <ele>2063</ele>
        <time>2018-07-29T09:23:09Z</time>
      </trkpt>
      <trkpt lat="42.62351" lon="1.8762">
        <ele>2064</ele>
        <time>2018-07-29T09:23:44Z</time>
      </trkpt>
      <trkpt lat="42.62343" lon="1.87603">
        <ele>2066</ele>
        <time>2018-07-29T09:24:23Z</time>
      </trkpt>
      <trkpt lat="42.62331" lon="1.876">
        <ele>2067</ele>
        <time>2018-07-29T09:24:50Z</time>
      </trkpt>
      <trkpt lat="42.62323" lon="1.87591">
        <ele>2068</ele>
        <time>2018-07-29T09:25:09Z</time>
      </trkpt>
      <trkpt lat="42.62319" lon="1.87602">
        <ele>2066</ele>
        <time>2018-07-29T09:26:01Z</time>
      </trkpt>
      <trkpt lat="42.6229" lon="1.87571">
        <ele>2074</ele>
        <time>2018-07-29T09:27:06Z</time>
      </trkpt>
      <trkpt lat="42.62295" lon="1.87591">
        <ele>2065</ele>
        <time>2018-07-29T09:27:40Z</time>
      </trkpt>
      <trkpt lat="42.62292" lon="1.87615">
        <ele>2065</ele>
        <time>2018-07-29T09:28:02Z</time>
      </trkpt>
      <trkpt lat="42.62287" lon="1.87618">
        <ele>2065</ele>
        <time>2018-07-29T09:28:42Z</time>
      </trkpt>
      <trkpt lat="42.62289" lon="1.87633">
        <ele>2065</ele>
        <time>2018-07-29T09:29:04Z</time>
      </trkpt>
      <trkpt lat="42.6229" lon="1.87657">
        <ele>2065</ele>
        <time>2018-07-29T09:29:39Z</time>
      </trkpt>
      <trkpt lat="42.62288" lon="1.87643">
        <ele>2065</ele>
        <time>2018-07-29T09:30:06Z</time>
      </trkpt>
      <trkpt lat="42.6229" lon="1.87643">
        <ele>2065</ele>
        <time>2018-07-29T09:31:04Z</time>
      </trkpt>
      <trkpt lat="42.62292" lon="1.8762">
        <ele>2065</ele>
        <time>2018-07-29T10:46:54Z</time>
      </trkpt>
      <trkpt lat="42.62296" lon="1.87596">
        <ele>2065</ele>
        <time>2018-07-29T10:47:23Z</time>
      </trkpt>
      <trkpt lat="42.62303" lon="1.87584">
        <ele>2066</ele>
        <time>2018-07-29T10:48:14Z</time>
      </trkpt>
      <trkpt lat="42.62329" lon="1.87598">
        <ele>2067</ele>
        <time>2018-07-29T10:49:01Z</time>
      </trkpt>
      <trkpt lat="42.62334" lon="1.87593">
        <ele>2068</ele>
        <time>2018-07-29T10:51:04Z</time>
      </trkpt>
      <trkpt lat="42.62341" lon="1.87604">
        <ele>2066</ele>
        <time>2018-07-29T10:51:19Z</time>
      </trkpt>
      <trkpt lat="42.62346" lon="1.87618">
        <ele>2064</ele>
        <time>2018-07-29T10:51:46Z</time>
      </trkpt>
      <trkpt lat="42.62355" lon="1.87626">
        <ele>2063</ele>
        <time>2018-07-29T10:52:04Z</time>
      </trkpt>
      <trkpt lat="42.6236" lon="1.87636">
        <ele>2062</ele>
        <time>2018-07-29T10:52:22Z</time>
      </trkpt>
      <trkpt lat="42.62367" lon="1.87648">
        <ele>2061</ele>
        <time>2018-07-29T10:52:39Z</time>
      </trkpt>
      <trkpt lat="42.62377" lon="1.87654">
        <ele>2060</ele>
        <time>2018-07-29T10:52:53Z</time>
      </trkpt>
      <trkpt lat="42.62389" lon="1.87657">
        <ele>2058</ele>
        <time>2018-07-29T10:53:05Z</time>
      </trkpt>
      <trkpt lat="42.624" lon="1.87665">
        <ele>2055</ele>
        <time>2018-07-29T10:53:16Z</time>
      </trkpt>
      <trkpt lat="42.62412" lon="1.87669">
        <ele>2048</ele>
        <time>2018-07-29T10:53:27Z</time>
      </trkpt>
      <trkpt lat="42.62423" lon="1.8767">
        <ele>2046</ele>
        <time>2018-07-29T10:53:41Z</time>
      </trkpt>
      <trkpt lat="42.62436" lon="1.87672">
        <ele>2044</ele>
        <time>2018-07-29T10:53:56Z</time>
      </trkpt>
      <trkpt lat="42.62446" lon="1.87676">
        <ele>2043</ele>
        <time>2018-07-29T10:54:13Z</time>
      </trkpt>
      <trkpt lat="42.62456" lon="1.87674">
        <ele>2042</ele>
        <time>2018-07-29T10:54:29Z</time>
      </trkpt>
      <trkpt lat="42.62467" lon="1.87684">
        <ele>2041</ele>
        <time>2018-07-29T10:54:45Z</time>
      </trkpt>
      <trkpt lat="42.62475" lon="1.87672">
        <ele>2042</ele>
        <time>2018-07-29T10:55:13Z</time>
      </trkpt>
      <trkpt lat="42.62487" lon="1.87675">
        <ele>2042</ele>
        <time>2018-07-29T10:55:39Z</time>
      </trkpt>
      <trkpt lat="42.6249" lon="1.87685">
        <ele>2041</ele>
        <time>2018-07-29T10:56:03Z</time>
      </trkpt>
      <trkpt lat="42.62502" lon="1.87693">
        <ele>2034</ele>
        <time>2018-07-29T10:56:32Z</time>
      </trkpt>
      <trkpt lat="42.62515" lon="1.87701">
        <ele>2032</ele>
        <time>2018-07-29T10:56:51Z</time>
      </trkpt>
      <trkpt lat="42.62533" lon="1.87708">
        <ele>2030</ele>
        <time>2018-07-29T10:57:22Z</time>
      </trkpt>
      <trkpt lat="42.6255" lon="1.87713">
        <ele>2028</ele>
        <time>2018-07-29T10:57:56Z</time>
      </trkpt>
      <trkpt lat="42.62563" lon="1.8773">
        <ele>2022</ele>
        <time>2018-07-29T10:58:31Z</time>
      </trkpt>
      <trkpt lat="42.62576" lon="1.87741">
        <ele>2013</ele>
        <time>2018-07-29T10:58:57Z</time>
      </trkpt>
      <trkpt lat="42.62582" lon="1.87749">
        <ele>2006</ele>
        <time>2018-07-29T10:59:18Z</time>
      </trkpt>
      <trkpt lat="42.62598" lon="1.87755">
        <ele>1996</ele>
        <time>2018-07-29T10:59:48Z</time>
      </trkpt>
      <trkpt lat="42.62619" lon="1.87777">
        <ele>1989</ele>
        <time>2018-07-29T11:00:20Z</time>
      </trkpt>
      <trkpt lat="42.6263" lon="1.87792">
        <ele>1985</ele>
        <time>2018-07-29T11:01:10Z</time>
      </trkpt>
      <trkpt lat="42.62631" lon="1.87807">
        <ele>1983</ele>
        <time>2018-07-29T11:01:52Z</time>
      </trkpt>
      <trkpt lat="42.62643" lon="1.87804">
        <ele>1981</ele>
        <time>2018-07-29T11:02:15Z</time>
      </trkpt>
      <trkpt lat="42.6265" lon="1.87813">
        <ele>1978</ele>
        <time>2018-07-29T11:02:42Z</time>
      </trkpt>
      <trkpt lat="42.62663" lon="1.87817">
        <ele>1973</ele>
        <time>2018-07-29T11:03:03Z</time>
      </trkpt>
      <trkpt lat="42.62684" lon="1.87825">
        <ele>1961</ele>
        <time>2018-07-29T11:03:26Z</time>
      </trkpt>
      <trkpt lat="42.62697" lon="1.87838">
        <ele>1949</ele>
        <time>2018-07-29T11:03:52Z</time>
      </trkpt>
      <trkpt lat="42.62705" lon="1.87846">
        <ele>1947</ele>
        <time>2018-07-29T11:04:41Z</time>
      </trkpt>
      <trkpt lat="42.62725" lon="1.87853">
        <ele>1943</ele>
        <time>2018-07-29T11:05:28Z</time>
      </trkpt>
      <trkpt lat="42.6275" lon="1.87865">
        <ele>1914</ele>
        <time>2018-07-29T11:06:33Z</time>
      </trkpt>
      <trkpt lat="42.62768" lon="1.87875">
        <ele>1909</ele>
        <time>2018-07-29T11:07:09Z</time>
      </trkpt>
      <trkpt lat="42.62778" lon="1.87879">
        <ele>1906</ele>
        <time>2018-07-29T11:07:36Z</time>
      </trkpt>
      <trkpt lat="42.62788" lon="1.87897">
        <ele>1902</ele>
        <time>2018-07-29T11:08:09Z</time>
      </trkpt>
      <trkpt lat="42.62799" lon="1.87909">
        <ele>1897</ele>
        <time>2018-07-29T11:08:30Z</time>
      </trkpt>
      <trkpt lat="42.62809" lon="1.87913">
        <ele>1893</ele>
        <time>2018-07-29T11:08:46Z</time>
      </trkpt>
      <trkpt lat="42.62819" lon="1.87901">
        <ele>1890</ele>
        <time>2018-07-29T11:09:14Z</time>
      </trkpt>
      <trkpt lat="42.62836" lon="1.87901">
        <ele>1870</ele>
        <time>2018-07-29T11:09:39Z</time>
      </trkpt>
      <trkpt lat="42.62845" lon="1.87897">
        <ele>1868</ele>
        <time>2018-07-29T11:09:58Z</time>
      </trkpt>
      <trkpt lat="42.62855" lon="1.87893">
        <ele>1866</ele>
        <time>2018-07-29T11:10:14Z</time>
      </trkpt>
      <trkpt lat="42.62863" lon="1.8788">
        <ele>1865</ele>
        <time>2018-07-29T11:10:33Z</time>
      </trkpt>
      <trkpt lat="42.62871" lon="1.87866">
        <ele>1865</ele>
        <time>2018-07-29T11:10:51Z</time>
      </trkpt>
      <trkpt lat="42.62884" lon="1.87863">
        <ele>1862</ele>
        <time>2018-07-29T11:11:11Z</time>
      </trkpt>
      <trkpt lat="42.62894" lon="1.87859">
        <ele>1860</ele>
        <time>2018-07-29T11:11:28Z</time>
      </trkpt>
      <trkpt lat="42.62905" lon="1.8786">
        <ele>1858</ele>
        <time>2018-07-29T11:11:41Z</time>
      </trkpt>
      <trkpt lat="42.62916" lon="1.87851">
        <ele>1856</ele>
        <time>2018-07-29T11:12:03Z</time>
      </trkpt>
      <trkpt lat="42.62925" lon="1.87839">
        <ele>1847</ele>
        <time>2018-07-29T11:12:20Z</time>
      </trkpt>
      <trkpt lat="42.62939" lon="1.87828">
        <ele>1847</ele>
        <time>2018-07-29T11:12:44Z</time>
      </trkpt>
      <trkpt lat="42.62954" lon="1.87829">
        <ele>1844</ele>
        <time>2018-07-29T11:12:59Z</time>
      </trkpt>
      <trkpt lat="42.62963" lon="1.87835">
        <ele>1838</ele>
        <time>2018-07-29T11:13:13Z</time>
      </trkpt>
      <trkpt lat="42.62971" lon="1.8785">
        <ele>1837</ele>
        <time>2018-07-29T11:13:34Z</time>
      </trkpt>
      <trkpt lat="42.62982" lon="1.87842">
        <ele>1834</ele>
        <time>2018-07-29T11:13:53Z</time>
      </trkpt>
      <trkpt lat="42.62988" lon="1.87836">
        <ele>1832</ele>
        <time>2018-07-29T11:14:21Z</time>
      </trkpt>
      <trkpt lat="42.62995" lon="1.87822">
        <ele>1834</ele>
        <time>2018-07-29T11:14:33Z</time>
      </trkpt>
      <trkpt lat="42.63002" lon="1.8781">
        <ele>1831</ele>
        <time>2018-07-29T11:14:46Z</time>
      </trkpt>
      <trkpt lat="42.63011" lon="1.87797">
        <ele>1832</ele>
        <time>2018-07-29T11:14:59Z</time>
      </trkpt>
      <trkpt lat="42.63018" lon="1.87783">
        <ele>1832</ele>
        <time>2018-07-29T11:15:11Z</time>
      </trkpt>
      <trkpt lat="42.63021" lon="1.87768">
        <ele>1832</ele>
        <time>2018-07-29T11:15:23Z</time>
      </trkpt>
      <trkpt lat="42.63023" lon="1.87753">
        <ele>1832</ele>
        <time>2018-07-29T11:15:36Z</time>
      </trkpt>
      <trkpt lat="42.63022" lon="1.87739">
        <ele>1830</ele>
        <time>2018-07-29T11:15:48Z</time>
      </trkpt>
      <trkpt lat="42.63027" lon="1.87724">
        <ele>1830</ele>
        <time>2018-07-29T11:16:05Z</time>
      </trkpt>
      <trkpt lat="42.63031" lon="1.8771">
        <ele>1830</ele>
        <time>2018-07-29T11:16:18Z</time>
      </trkpt>
      <trkpt lat="42.63032" lon="1.87696">
        <ele>1830</ele>
        <time>2018-07-29T11:16:30Z</time>
      </trkpt>
      <trkpt lat="42.63042" lon="1.87682">
        <ele>1828</ele>
        <time>2018-07-29T11:16:43Z</time>
      </trkpt>
      <trkpt lat="42.63044" lon="1.87666">
        <ele>1825</ele>
        <time>2018-07-29T11:16:54Z</time>
      </trkpt>
      <trkpt lat="42.6305" lon="1.87649">
        <ele>1823</ele>
        <time>2018-07-29T11:17:10Z</time>
      </trkpt>
      <trkpt lat="42.63056" lon="1.87633">
        <ele>1822</ele>
        <time>2018-07-29T11:17:27Z</time>
      </trkpt>
      <trkpt lat="42.63065" lon="1.87611">
        <ele>1819</ele>
        <time>2018-07-29T11:17:58Z</time>
      </trkpt>
      <trkpt lat="42.63063" lon="1.87587">
        <ele>1816</ele>
        <time>2018-07-29T11:18:35Z</time>
      </trkpt>
      <trkpt lat="42.6307" lon="1.87571">
        <ele>1810</ele>
        <time>2018-07-29T11:18:59Z</time>
      </trkpt>
      <trkpt lat="42.63076" lon="1.87551">
        <ele>1811</ele>
        <time>2018-07-29T11:19:24Z</time>
      </trkpt>
      <trkpt lat="42.6308" lon="1.87534">
        <ele>1810</ele>
        <time>2018-07-29T11:19:43Z</time>
      </trkpt>
      <trkpt lat="42.63086" lon="1.87516">
        <ele>1808</ele>
        <time>2018-07-29T11:20:04Z</time>
      </trkpt>
      <trkpt lat="42.6309" lon="1.87499">
        <ele>1800</ele>
        <time>2018-07-29T11:20:21Z</time>
      </trkpt>
      <trkpt lat="42.63102" lon="1.87483">
        <ele>1806</ele>
        <time>2018-07-29T11:20:41Z</time>
      </trkpt>
      <trkpt lat="42.63105" lon="1.8747">
        <ele>1807</ele>
        <time>2018-07-29T11:20:55Z</time>
      </trkpt>
      <trkpt lat="42.63103" lon="1.87455">
        <ele>1806</ele>
        <time>2018-07-29T11:21:09Z</time>
      </trkpt>
      <trkpt lat="42.63103" lon="1.87437">
        <ele>1803</ele>
        <time>2018-07-29T11:21:28Z</time>
      </trkpt>
      <trkpt lat="42.63103" lon="1.87419">
        <ele>1801</ele>
        <time>2018-07-29T11:21:46Z</time>
      </trkpt>
      <trkpt lat="42.63106" lon="1.87403">
        <ele>1796</ele>
        <time>2018-07-29T11:22:02Z</time>
      </trkpt>
      <trkpt lat="42.63109" lon="1.87386">
        <ele>1797</ele>
        <time>2018-07-29T11:22:19Z</time>
      </trkpt>
      <trkpt lat="42.63109" lon="1.87368">
        <ele>1797</ele>
        <time>2018-07-29T11:22:36Z</time>
      </trkpt>
      <trkpt lat="42.63112" lon="1.8735">
        <ele>1796</ele>
        <time>2018-07-29T11:22:56Z</time>
      </trkpt>
      <trkpt lat="42.63111" lon="1.87332">
        <ele>1792</ele>
        <time>2018-07-29T11:23:10Z</time>
      </trkpt>
      <trkpt lat="42.63112" lon="1.87316">
        <ele>1792</ele>
        <time>2018-07-29T11:23:25Z</time>
      </trkpt>
      <trkpt lat="42.63121" lon="1.87301">
        <ele>1791</ele>
        <time>2018-07-29T11:23:40Z</time>
      </trkpt>
      <trkpt lat="42.63124" lon="1.87284">
        <ele>1791</ele>
        <time>2018-07-29T11:23:53Z</time>
      </trkpt>
      <trkpt lat="42.63135" lon="1.8727">
        <ele>1789</ele>
        <time>2018-07-29T11:24:11Z</time>
      </trkpt>
      <trkpt lat="42.6314" lon="1.87254">
        <ele>1787</ele>
        <time>2018-07-29T11:24:32Z</time>
      </trkpt>
      <trkpt lat="42.63148" lon="1.87233">
        <ele>1785</ele>
        <time>2018-07-29T11:25:00Z</time>
      </trkpt>
      <trkpt lat="42.63153" lon="1.87216">
        <ele>1786</ele>
        <time>2018-07-29T11:25:15Z</time>
      </trkpt>
      <trkpt lat="42.63158" lon="1.87199">
        <ele>1785</ele>
        <time>2018-07-29T11:25:26Z</time>
      </trkpt>
      <trkpt lat="42.63167" lon="1.87185">
        <ele>1778</ele>
        <time>2018-07-29T11:25:41Z</time>
      </trkpt>
      <trkpt lat="42.63179" lon="1.87172">
        <ele>1777</ele>
        <time>2018-07-29T11:25:56Z</time>
      </trkpt>
      <trkpt lat="42.63189" lon="1.8716">
        <ele>1773</ele>
        <time>2018-07-29T11:26:11Z</time>
      </trkpt>
      <trkpt lat="42.632" lon="1.8715">
        <ele>1772</ele>
        <time>2018-07-29T11:26:27Z</time>
      </trkpt>
      <trkpt lat="42.63214" lon="1.8714">
        <ele>1772</ele>
        <time>2018-07-29T11:26:47Z</time>
      </trkpt>
      <trkpt lat="42.63226" lon="1.87135">
        <ele>1771</ele>
        <time>2018-07-29T11:27:06Z</time>
      </trkpt>
      <trkpt lat="42.63235" lon="1.87121">
        <ele>1769</ele>
        <time>2018-07-29T11:27:20Z</time>
      </trkpt>
      <trkpt lat="42.63243" lon="1.87107">
        <ele>1765</ele>
        <time>2018-07-29T11:27:30Z</time>
      </trkpt>
      <trkpt lat="42.63253" lon="1.87093">
        <ele>1758</ele>
        <time>2018-07-29T11:27:44Z</time>
      </trkpt>
      <trkpt lat="42.6326" lon="1.87081">
        <ele>1753</ele>
        <time>2018-07-29T11:27:57Z</time>
      </trkpt>
      <trkpt lat="42.63265" lon="1.87065">
        <ele>1753</ele>
        <time>2018-07-29T11:28:13Z</time>
      </trkpt>
      <trkpt lat="42.63277" lon="1.87053">
        <ele>1753</ele>
        <time>2018-07-29T11:28:33Z</time>
      </trkpt>
      <trkpt lat="42.63283" lon="1.87037">
        <ele>1753</ele>
        <time>2018-07-29T11:28:50Z</time>
      </trkpt>
      <trkpt lat="42.63295" lon="1.87024">
        <ele>1752</ele>
        <time>2018-07-29T11:29:06Z</time>
      </trkpt>
      <trkpt lat="42.63305" lon="1.87009">
        <ele>1750</ele>
        <time>2018-07-29T11:29:24Z</time>
      </trkpt>
      <trkpt lat="42.63312" lon="1.86996">
        <ele>1748</ele>
        <time>2018-07-29T11:29:36Z</time>
      </trkpt>
      <trkpt lat="42.63322" lon="1.8698">
        <ele>1748</ele>
        <time>2018-07-29T11:29:55Z</time>
      </trkpt>
      <trkpt lat="42.63335" lon="1.86982">
        <ele>1744</ele>
        <time>2018-07-29T11:30:19Z</time>
      </trkpt>
      <trkpt lat="42.63344" lon="1.86973">
        <ele>1745</ele>
        <time>2018-07-29T11:30:36Z</time>
      </trkpt>
      <trkpt lat="42.6335" lon="1.86956">
        <ele>1746</ele>
        <time>2018-07-29T11:30:55Z</time>
      </trkpt>
      <trkpt lat="42.63358" lon="1.86941">
        <ele>1745</ele>
        <time>2018-07-29T11:31:07Z</time>
      </trkpt>
      <trkpt lat="42.6337" lon="1.86929">
        <ele>1745</ele>
        <time>2018-07-29T11:31:23Z</time>
      </trkpt>
      <trkpt lat="42.63386" lon="1.86926">
        <ele>1745</ele>
        <time>2018-07-29T11:31:48Z</time>
      </trkpt>
      <trkpt lat="42.63396" lon="1.86917">
        <ele>1744</ele>
        <time>2018-07-29T11:32:11Z</time>
      </trkpt>
      <trkpt lat="42.6342" lon="1.86904">
        <ele>1738</ele>
        <time>2018-07-29T11:32:48Z</time>
      </trkpt>
      <trkpt lat="42.63432" lon="1.86891">
        <ele>1736</ele>
        <time>2018-07-29T11:33:09Z</time>
      </trkpt>
      <trkpt lat="42.63443" lon="1.86889">
        <ele>1735</ele>
        <time>2018-07-29T11:33:24Z</time>
      </trkpt>
      <trkpt lat="42.63455" lon="1.86881">
        <ele>1734</ele>
        <time>2018-07-29T11:33:43Z</time>
      </trkpt>
      <trkpt lat="42.63469" lon="1.86873">
        <ele>1733</ele>
        <time>2018-07-29T11:34:03Z</time>
      </trkpt>
      <trkpt lat="42.63481" lon="1.86866">
        <ele>1732</ele>
        <time>2018-07-29T11:34:23Z</time>
      </trkpt>
      <trkpt lat="42.63497" lon="1.86863">
        <ele>1730</ele>
        <time>2018-07-29T11:34:44Z</time>
      </trkpt>
      <trkpt lat="42.63505" lon="1.86849">
        <ele>1726</ele>
        <time>2018-07-29T11:34:57Z</time>
      </trkpt>
      <trkpt lat="42.6352" lon="1.8684">
        <ele>1727</ele>
        <time>2018-07-29T11:35:17Z</time>
      </trkpt>
      <trkpt lat="42.63534" lon="1.8683">
        <ele>1724</ele>
        <time>2018-07-29T11:35:33Z</time>
      </trkpt>
      <trkpt lat="42.63547" lon="1.86824">
        <ele>1724</ele>
        <time>2018-07-29T11:35:52Z</time>
      </trkpt>
      <trkpt lat="42.63559" lon="1.86816">
        <ele>1724</ele>
        <time>2018-07-29T11:36:03Z</time>
      </trkpt>
      <trkpt lat="42.63571" lon="1.86807">
        <ele>1723</ele>
        <time>2018-07-29T11:36:16Z</time>
      </trkpt>
      <trkpt lat="42.63565" lon="1.86801">
        <ele>1724</ele>
        <time>2018-07-29T11:38:00Z</time>
      </trkpt>
      <trkpt lat="42.63583" lon="1.86797">
        <ele>1723</ele>
        <time>2018-07-29T11:38:18Z</time>
      </trkpt>
      <trkpt lat="42.63593" lon="1.86788">
        <ele>1717</ele>
        <time>2018-07-29T11:38:29Z</time>
      </trkpt>
      <trkpt lat="42.63604" lon="1.86778">
        <ele>1716</ele>
        <time>2018-07-29T11:38:42Z</time>
      </trkpt>
      <trkpt lat="42.63612" lon="1.86763">
        <ele>1715</ele>
        <time>2018-07-29T11:38:54Z</time>
      </trkpt>
      <trkpt lat="42.63617" lon="1.86768">
        <ele>1715</ele>
        <time>2018-07-29T11:40:45Z</time>
      </trkpt>
      <trkpt lat="42.6363" lon="1.86767">
        <ele>1714</ele>
        <time>2018-07-29T11:40:57Z</time>
      </trkpt>
      <trkpt lat="42.63643" lon="1.86768">
        <ele>1713</ele>
        <time>2018-07-29T11:41:39Z</time>
      </trkpt>
      <trkpt lat="42.63653" lon="1.86764">
        <ele>1711</ele>
        <time>2018-07-29T11:41:53Z</time>
      </trkpt>
      <trkpt lat="42.63663" lon="1.86753">
        <ele>1704</ele>
        <time>2018-07-29T11:42:08Z</time>
      </trkpt>
      <trkpt lat="42.63671" lon="1.86742">
        <ele>1701</ele>
        <time>2018-07-29T11:42:24Z</time>
      </trkpt>
      <trkpt lat="42.63685" lon="1.8674">
        <ele>1702</ele>
        <time>2018-07-29T11:42:40Z</time>
      </trkpt>
      <trkpt lat="42.63698" lon="1.86729">
        <ele>1702</ele>
        <time>2018-07-29T11:42:57Z</time>
      </trkpt>
      <trkpt lat="42.63709" lon="1.86728">
        <ele>1702</ele>
        <time>2018-07-29T11:43:27Z</time>
      </trkpt>
      <trkpt lat="42.63722" lon="1.86716">
        <ele>1702</ele>
        <time>2018-07-29T11:43:49Z</time>
      </trkpt>
      <trkpt lat="42.63739" lon="1.86712">
        <ele>1701</ele>
        <time>2018-07-29T11:44:09Z</time>
      </trkpt>
      <trkpt lat="42.63753" lon="1.86707">
        <ele>1697</ele>
        <time>2018-07-29T11:44:29Z</time>
      </trkpt>
      <trkpt lat="42.63767" lon="1.86699">
        <ele>1695</ele>
        <time>2018-07-29T11:44:58Z</time>
      </trkpt>
      <trkpt lat="42.6378" lon="1.86689">
        <ele>1694</ele>
        <time>2018-07-29T11:45:31Z</time>
      </trkpt>
      <trkpt lat="42.63793" lon="1.86688">
        <ele>1693</ele>
        <time>2018-07-29T11:45:46Z</time>
      </trkpt>
      <trkpt lat="42.63806" lon="1.86675">
        <ele>1689</ele>
        <time>2018-07-29T11:46:12Z</time>
      </trkpt>
      <trkpt lat="42.63822" lon="1.86669">
        <ele>1682</ele>
        <time>2018-07-29T11:46:36Z</time>
      </trkpt>
      <trkpt lat="42.63832" lon="1.86662">
        <ele>1674</ele>
        <time>2018-07-29T11:46:48Z</time>
      </trkpt>
      <trkpt lat="42.63844" lon="1.86648">
        <ele>1665</ele>
        <time>2018-07-29T11:47:08Z</time>
      </trkpt>
      <trkpt lat="42.63855" lon="1.86635">
        <ele>1662</ele>
        <time>2018-07-29T11:47:29Z</time>
      </trkpt>
      <trkpt lat="42.63866" lon="1.86627">
        <ele>1660</ele>
        <time>2018-07-29T11:47:54Z</time>
      </trkpt>
      <trkpt lat="42.63878" lon="1.86619">
        <ele>1658</ele>
        <time>2018-07-29T11:48:14Z</time>
      </trkpt>
      <trkpt lat="42.63878" lon="1.86609">
        <ele>1656</ele>
        <time>2018-07-29T11:48:33Z</time>
      </trkpt>
      <trkpt lat="42.63894" lon="1.8661">
        <ele>1654</ele>
        <time>2018-07-29T11:48:56Z</time>
      </trkpt>
      <trkpt lat="42.63908" lon="1.866">
        <ele>1648</ele>
        <time>2018-07-29T11:49:16Z</time>
      </trkpt>
      <trkpt lat="42.6392" lon="1.86586">
        <ele>1640</ele>
        <time>2018-07-29T11:49:39Z</time>
      </trkpt>
      <trkpt lat="42.63927" lon="1.86572">
        <ele>1636</ele>
        <time>2018-07-29T11:49:58Z</time>
      </trkpt>
      <trkpt lat="42.63933" lon="1.86559">
        <ele>1636</ele>
        <time>2018-07-29T11:50:16Z</time>
      </trkpt>
      <trkpt lat="42.63938" lon="1.86544">
        <ele>1635</ele>
        <time>2018-07-29T11:50:30Z</time>
      </trkpt>
      <trkpt lat="42.63946" lon="1.86529">
        <ele>1634</ele>
        <time>2018-07-29T11:50:41Z</time>
      </trkpt>
      <trkpt lat="42.63957" lon="1.86516">
        <ele>1633</ele>
        <time>2018-07-29T11:50:55Z</time>
      </trkpt>
      <trkpt lat="42.63962" lon="1.86501">
        <ele>1632</ele>
        <time>2018-07-29T11:51:07Z</time>
      </trkpt>
      <trkpt lat="42.63966" lon="1.86485">
        <ele>1623</ele>
        <time>2018-07-29T11:51:20Z</time>
      </trkpt>
      <trkpt lat="42.63968" lon="1.8647">
        <ele>1623</ele>
        <time>2018-07-29T11:51:32Z</time>
      </trkpt>
      <trkpt lat="42.63975" lon="1.86457">
        <ele>1621</ele>
        <time>2018-07-29T11:51:48Z</time>
      </trkpt>
      <trkpt lat="42.63981" lon="1.86449">
        <ele>1620</ele>
        <time>2018-07-29T11:52:07Z</time>
      </trkpt>
      <trkpt lat="42.63992" lon="1.8644">
        <ele>1617</ele>
        <time>2018-07-29T11:52:32Z</time>
      </trkpt>
      <trkpt lat="42.64004" lon="1.86432">
        <ele>1611</ele>
        <time>2018-07-29T11:52:54Z</time>
      </trkpt>
      <trkpt lat="42.64017" lon="1.86432">
        <ele>1612</ele>
        <time>2018-07-29T11:53:13Z</time>
      </trkpt>
      <trkpt lat="42.64027" lon="1.86429">
        <ele>1612</ele>
        <time>2018-07-29T11:53:33Z</time>
      </trkpt>
      <trkpt lat="42.64039" lon="1.86425">
        <ele>1612</ele>
        <time>2018-07-29T11:53:48Z</time>
      </trkpt>
      <trkpt lat="42.64051" lon="1.86423">
        <ele>1610</ele>
        <time>2018-07-29T11:54:07Z</time>
      </trkpt>
      <trkpt lat="42.64059" lon="1.86411">
        <ele>1594</ele>
        <time>2018-07-29T11:54:30Z</time>
      </trkpt>
      <trkpt lat="42.64072" lon="1.86403">
        <ele>1593</ele>
        <time>2018-07-29T11:54:56Z</time>
      </trkpt>
      <trkpt lat="42.64083" lon="1.86394">
        <ele>1592</ele>
        <time>2018-07-29T11:55:14Z</time>
      </trkpt>
      <trkpt lat="42.64095" lon="1.86382">
        <ele>1583</ele>
        <time>2018-07-29T11:55:40Z</time>
      </trkpt>
      <trkpt lat="42.64107" lon="1.86376">
        <ele>1582</ele>
        <time>2018-07-29T11:55:55Z</time>
      </trkpt>
      <trkpt lat="42.64117" lon="1.86366">
        <ele>1580</ele>
        <time>2018-07-29T11:56:17Z</time>
      </trkpt>
      <trkpt lat="42.64128" lon="1.86344">
        <ele>1576</ele>
        <time>2018-07-29T11:56:49Z</time>
      </trkpt>
      <trkpt lat="42.64133" lon="1.86328">
        <ele>1566</ele>
        <time>2018-07-29T11:57:01Z</time>
      </trkpt>
      <trkpt lat="42.64144" lon="1.86321">
        <ele>1565</ele>
        <time>2018-07-29T11:57:16Z</time>
      </trkpt>
      <trkpt lat="42.6415" lon="1.86306">
        <ele>1564</ele>
        <time>2018-07-29T11:57:39Z</time>
      </trkpt>
      <trkpt lat="42.64153" lon="1.86304">
        <ele>1564</ele>
        <time>2018-07-29T11:58:06Z</time>
      </trkpt>
      <trkpt lat="42.64158" lon="1.86304">
        <ele>1564</ele>
        <time>2018-07-29T12:00:29Z</time>
      </trkpt>
      <trkpt lat="42.64167" lon="1.86296">
        <ele>1552</ele>
        <time>2018-07-29T12:00:44Z</time>
      </trkpt>
      <trkpt lat="42.64175" lon="1.86285">
        <ele>1551</ele>
        <time>2018-07-29T12:01:07Z</time>
      </trkpt>
      <trkpt lat="42.64186" lon="1.86282">
        <ele>1550</ele>
        <time>2018-07-29T12:01:23Z</time>
      </trkpt>
      <trkpt lat="42.64198" lon="1.8628">
        <ele>1549</ele>
        <time>2018-07-29T12:01:41Z</time>
      </trkpt>
      <trkpt lat="42.64212" lon="1.86277">
        <ele>1547</ele>
        <time>2018-07-29T12:02:00Z</time>
      </trkpt>
      <trkpt lat="42.64224" lon="1.86272">
        <ele>1545</ele>
        <time>2018-07-29T12:02:14Z</time>
      </trkpt>
      <trkpt lat="42.64235" lon="1.86271">
        <ele>1543</ele>
        <time>2018-07-29T12:02:34Z</time>
      </trkpt>
      <trkpt lat="42.64246" lon="1.86269">
        <ele>1541</ele>
        <time>2018-07-29T12:02:50Z</time>
      </trkpt>
      <trkpt lat="42.64256" lon="1.86274">
        <ele>1537</ele>
        <time>2018-07-29T12:03:03Z</time>
      </trkpt>
      <trkpt lat="42.64269" lon="1.86275">
        <ele>1537</ele>
        <time>2018-07-29T12:03:17Z</time>
      </trkpt>
      <trkpt lat="42.64279" lon="1.86268">
        <ele>1536</ele>
        <time>2018-07-29T12:03:28Z</time>
      </trkpt>
      <trkpt lat="42.6429" lon="1.86264">
        <ele>1536</ele>
        <time>2018-07-29T12:03:48Z</time>
      </trkpt>
      <trkpt lat="42.64303" lon="1.86262">
        <ele>1534</ele>
        <time>2018-07-29T12:04:02Z</time>
      </trkpt>
      <trkpt lat="42.64317" lon="1.86259">
        <ele>1532</ele>
        <time>2018-07-29T12:04:21Z</time>
      </trkpt>
      <trkpt lat="42.64332" lon="1.86255">
        <ele>1527</ele>
        <time>2018-07-29T12:04:37Z</time>
      </trkpt>
      <trkpt lat="42.64344" lon="1.86249">
        <ele>1522</ele>
        <time>2018-07-29T12:04:51Z</time>
      </trkpt>
      <trkpt lat="42.64356" lon="1.86245">
        <ele>1520</ele>
        <time>2018-07-29T12:05:05Z</time>
      </trkpt>
      <trkpt lat="42.64368" lon="1.86246">
        <ele>1519</ele>
        <time>2018-07-29T12:05:18Z</time>
      </trkpt>
      <trkpt lat="42.6438" lon="1.8624">
        <ele>1519</ele>
        <time>2018-07-29T12:05:31Z</time>
      </trkpt>
      <trkpt lat="42.64392" lon="1.86242">
        <ele>1518</ele>
        <time>2018-07-29T12:05:44Z</time>
      </trkpt>
      <trkpt lat="42.64403" lon="1.86242">
        <ele>1519</ele>
        <time>2018-07-29T12:05:55Z</time>
      </trkpt>
      <trkpt lat="42.64414" lon="1.86239">
        <ele>1519</ele>
        <time>2018-07-29T12:06:05Z</time>
      </trkpt>
      <trkpt lat="42.64425" lon="1.86236">
        <ele>1517</ele>
        <time>2018-07-29T12:06:15Z</time>
      </trkpt>
      <trkpt lat="42.64435" lon="1.86232">
        <ele>1517</ele>
        <time>2018-07-29T12:06:26Z</time>
      </trkpt>
      <trkpt lat="42.64446" lon="1.86234">
        <ele>1517</ele>
        <time>2018-07-29T12:06:36Z</time>
      </trkpt>
      <trkpt lat="42.64458" lon="1.86236">
        <ele>1518</ele>
        <time>2018-07-29T12:06:48Z</time>
      </trkpt>
      <trkpt lat="42.64469" lon="1.86235">
        <ele>1519</ele>
        <time>2018-07-29T12:06:59Z</time>
      </trkpt>
      <trkpt lat="42.64477" lon="1.86226">
        <ele>1518</ele>
        <time>2018-07-29T12:07:10Z</time>
      </trkpt>
      <trkpt lat="42.64482" lon="1.86211">
        <ele>1515</ele>
        <time>2018-07-29T12:07:21Z</time>
      </trkpt>
      <trkpt lat="42.64493" lon="1.86206">
        <ele>1515</ele>
        <time>2018-07-29T12:07:35Z</time>
      </trkpt>
      <trkpt lat="42.64502" lon="1.86202">
        <ele>1518</ele>
        <time>2018-07-29T12:08:00Z</time>
      </trkpt>
      <trkpt lat="42.64511" lon="1.86188">
        <ele>1514</ele>
        <time>2018-07-29T12:08:21Z</time>
      </trkpt>
      <trkpt lat="42.64516" lon="1.86169">
        <ele>1510</ele>
        <time>2018-07-29T12:08:40Z</time>
      </trkpt>
      <trkpt lat="42.64521" lon="1.86154">
        <ele>1497</ele>
        <time>2018-07-29T12:08:56Z</time>
      </trkpt>
      <trkpt lat="42.6453" lon="1.86136">
        <ele>1495</ele>
        <time>2018-07-29T12:09:11Z</time>
      </trkpt>
      <trkpt lat="42.64543" lon="1.86123">
        <ele>1493</ele>
        <time>2018-07-29T12:09:31Z</time>
      </trkpt>
      <trkpt lat="42.64558" lon="1.86098">
        <ele>1489</ele>
        <time>2018-07-29T12:10:29Z</time>
      </trkpt>
      <trkpt lat="42.64571" lon="1.86078">
        <ele>1476</ele>
        <time>2018-07-29T12:10:57Z</time>
      </trkpt>
      <trkpt lat="42.64584" lon="1.86058">
        <ele>1472</ele>
        <time>2018-07-29T12:11:19Z</time>
      </trkpt>
      <trkpt lat="42.64594" lon="1.86042">
        <ele>1468</ele>
        <time>2018-07-29T12:11:38Z</time>
      </trkpt>
      <trkpt lat="42.64599" lon="1.86027">
        <ele>1465</ele>
        <time>2018-07-29T12:11:58Z</time>
      </trkpt>
      <trkpt lat="42.64601" lon="1.86014">
        <ele>1462</ele>
        <time>2018-07-29T12:12:15Z</time>
      </trkpt>
      <trkpt lat="42.64614" lon="1.86022">
        <ele>1465</ele>
        <time>2018-07-29T12:12:39Z</time>
      </trkpt>
      <trkpt lat="42.64627" lon="1.86016">
        <ele>1465</ele>
        <time>2018-07-29T12:12:58Z</time>
      </trkpt>
      <trkpt lat="42.64631" lon="1.86003">
        <ele>1464</ele>
        <time>2018-07-29T12:13:09Z</time>
      </trkpt>
      <trkpt lat="42.64633" lon="1.85987">
        <ele>1449</ele>
        <time>2018-07-29T12:13:22Z</time>
      </trkpt>
      <trkpt lat="42.64641" lon="1.85977">
        <ele>1448</ele>
        <time>2018-07-29T12:14:11Z</time>
      </trkpt>
      <trkpt lat="42.6465" lon="1.85963">
        <ele>1446</ele>
        <time>2018-07-29T12:14:31Z</time>
      </trkpt>
      <trkpt lat="42.64658" lon="1.85954">
        <ele>1444</ele>
        <time>2018-07-29T12:14:49Z</time>
      </trkpt>
      <trkpt lat="42.64665" lon="1.85942">
        <ele>1441</ele>
        <time>2018-07-29T12:15:05Z</time>
      </trkpt>
      <trkpt lat="42.64674" lon="1.85929">
        <ele>1438</ele>
        <time>2018-07-29T12:15:22Z</time>
      </trkpt>
      <trkpt lat="42.64687" lon="1.85918">
        <ele>1440</ele>
        <time>2018-07-29T12:15:46Z</time>
      </trkpt>
      <trkpt lat="42.64701" lon="1.85909">
        <ele>1429</ele>
        <time>2018-07-29T12:16:17Z</time>
      </trkpt>
      <trkpt lat="42.64715" lon="1.85891">
        <ele>1428</ele>
        <time>2018-07-29T12:16:43Z</time>
      </trkpt>
      <trkpt lat="42.64725" lon="1.85877">
        <ele>1427</ele>
        <time>2018-07-29T12:17:08Z</time>
      </trkpt>
      <trkpt lat="42.64726" lon="1.8586">
        <ele>1424</ele>
        <time>2018-07-29T12:17:24Z</time>
      </trkpt>
      <trkpt lat="42.64738" lon="1.85843">
        <ele>1420</ele>
        <time>2018-07-29T12:17:51Z</time>
      </trkpt>
      <trkpt lat="42.64746" lon="1.85825">
        <ele>1413</ele>
        <time>2018-07-29T12:18:08Z</time>
      </trkpt>
      <trkpt lat="42.64752" lon="1.8581">
        <ele>1411</ele>
        <time>2018-07-29T12:18:19Z</time>
      </trkpt>
      <trkpt lat="42.64765" lon="1.85797">
        <ele>1409</ele>
        <time>2018-07-29T12:18:41Z</time>
      </trkpt>
      <trkpt lat="42.64779" lon="1.85783">
        <ele>1408</ele>
        <time>2018-07-29T12:19:01Z</time>
      </trkpt>
      <trkpt lat="42.64792" lon="1.85768">
        <ele>1406</ele>
        <time>2018-07-29T12:19:18Z</time>
      </trkpt>
      <trkpt lat="42.64808" lon="1.85753">
        <ele>1405</ele>
        <time>2018-07-29T12:19:42Z</time>
      </trkpt>
      <trkpt lat="42.64826" lon="1.85737">
        <ele>1396</ele>
        <time>2018-07-29T12:20:04Z</time>
      </trkpt>
      <trkpt lat="42.64843" lon="1.85722">
        <ele>1401</ele>
        <time>2018-07-29T12:20:24Z</time>
      </trkpt>
      <trkpt lat="42.64857" lon="1.85705">
        <ele>1400</ele>
        <time>2018-07-29T12:20:42Z</time>
      </trkpt>
      <trkpt lat="42.6487" lon="1.85689">
        <ele>1400</ele>
        <time>2018-07-29T12:21:02Z</time>
      </trkpt>
      <trkpt lat="42.64878" lon="1.85671">
        <ele>1400</ele>
        <time>2018-07-29T12:21:43Z</time>
      </trkpt>
      <trkpt lat="42.64884" lon="1.85657">
        <ele>1390</ele>
        <time>2018-07-29T12:21:57Z</time>
      </trkpt>
      <trkpt lat="42.64892" lon="1.8564">
        <ele>1389</ele>
        <time>2018-07-29T12:22:15Z</time>
      </trkpt>
      <trkpt lat="42.64904" lon="1.85624">
        <ele>1388</ele>
        <time>2018-07-29T12:22:32Z</time>
      </trkpt>
      <trkpt lat="42.64913" lon="1.8561">
        <ele>1385</ele>
        <time>2018-07-29T12:23:01Z</time>
      </trkpt>
      <trkpt lat="42.64923" lon="1.85595">
        <ele>1393</ele>
        <time>2018-07-29T12:23:17Z</time>
      </trkpt>
      <trkpt lat="42.64928" lon="1.85581">
        <ele>1383</ele>
        <time>2018-07-29T12:23:29Z</time>
      </trkpt>
      <trkpt lat="42.64939" lon="1.85565">
        <ele>1385</ele>
        <time>2018-07-29T12:23:46Z</time>
      </trkpt>
      <trkpt lat="42.64943" lon="1.85541">
        <ele>1383</ele>
        <time>2018-07-29T12:24:06Z</time>
      </trkpt>
      <trkpt lat="42.64945" lon="1.8552">
        <ele>1381</ele>
        <time>2018-07-29T12:24:22Z</time>
      </trkpt>
      <trkpt lat="42.64954" lon="1.85503">
        <ele>1381</ele>
        <time>2018-07-29T12:24:35Z</time>
      </trkpt>
      <trkpt lat="42.64966" lon="1.85489">
        <ele>1372</ele>
        <time>2018-07-29T12:24:49Z</time>
      </trkpt>
      <trkpt lat="42.6498" lon="1.85477">
        <ele>1372</ele>
        <time>2018-07-29T12:25:04Z</time>
      </trkpt>
      <trkpt lat="42.64994" lon="1.85465">
        <ele>1371</ele>
        <time>2018-07-29T12:25:24Z</time>
      </trkpt>
      <trkpt lat="42.65003" lon="1.85441">
        <ele>1377</ele>
        <time>2018-07-29T12:25:50Z</time>
      </trkpt>
      <trkpt lat="42.6501" lon="1.85427">
        <ele>1372</ele>
        <time>2018-07-29T12:26:07Z</time>
      </trkpt>
      <trkpt lat="42.6502" lon="1.85408">
        <ele>1362</ele>
        <time>2018-07-29T12:26:31Z</time>
      </trkpt>
      <trkpt lat="42.65024" lon="1.85383">
        <ele>1361</ele>
        <time>2018-07-29T12:26:54Z</time>
      </trkpt>
      <trkpt lat="42.65037" lon="1.85357">
        <ele>1358</ele>
        <time>2018-07-29T12:27:30Z</time>
      </trkpt>
      <trkpt lat="42.65046" lon="1.85328">
        <ele>1344</ele>
        <time>2018-07-29T12:28:25Z</time>
      </trkpt>
      <trkpt lat="42.65056" lon="1.8531">
        <ele>1343</ele>
        <time>2018-07-29T12:28:52Z</time>
      </trkpt>
      <trkpt lat="42.65069" lon="1.85284">
        <ele>1340</ele>
        <time>2018-07-29T12:29:15Z</time>
      </trkpt>
      <trkpt lat="42.65097" lon="1.85273">
        <ele>1341</ele>
        <time>2018-07-29T12:29:45Z</time>
      </trkpt>
      <trkpt lat="42.65105" lon="1.85252">
        <ele>1339</ele>
        <time>2018-07-29T12:30:03Z</time>
      </trkpt>
      <trkpt lat="42.65128" lon="1.85233">
        <ele>1323</ele>
        <time>2018-07-29T12:30:31Z</time>
      </trkpt>
      <trkpt lat="42.65163" lon="1.85228">
        <ele>1326</ele>
        <time>2018-07-29T12:31:04Z</time>
      </trkpt>
      <trkpt lat="42.65185" lon="1.85215">
        <ele>1326</ele>
        <time>2018-07-29T12:31:23Z</time>
      </trkpt>
      <trkpt lat="42.65183" lon="1.85192">
        <ele>1320</ele>
        <time>2018-07-29T12:31:56Z</time>
      </trkpt>
      <trkpt lat="42.6518" lon="1.85181">
        <ele>1317</ele>
        <time>2018-07-29T12:32:15Z</time>
      </trkpt>
      <trkpt lat="42.65191" lon="1.85158">
        <ele>1300</ele>
        <time>2018-07-29T12:32:49Z</time>
      </trkpt>
      <trkpt lat="42.65192" lon="1.85126">
        <ele>1294</ele>
        <time>2018-07-29T12:33:38Z</time>
      </trkpt>
      <trkpt lat="42.65209" lon="1.85109">
        <ele>1291</ele>
        <time>2018-07-29T12:34:20Z</time>
      </trkpt>
      <trkpt lat="42.65213" lon="1.85106">
        <ele>1290</ele>
        <time>2018-07-29T12:36:05Z</time>
      </trkpt>
      <trkpt lat="42.65214" lon="1.85098">
        <ele>1289</ele>
        <time>2018-07-29T12:56:19Z</time>
      </trkpt>
      <trkpt lat="42.65212" lon="1.85092">
        <ele>1288</ele>
        <time>2018-07-29T13:01:01Z</time>
      </trkpt>
      <trkpt lat="42.65213" lon="1.85073">
        <ele>1268</ele>
        <time>2018-07-29T13:01:33Z</time>
      </trkpt>
      <trkpt lat="42.65218" lon="1.85059">
        <ele>1266</ele>
        <time>2018-07-29T13:01:57Z</time>
      </trkpt>
      <trkpt lat="42.65229" lon="1.85047">
        <ele>1264</ele>
        <time>2018-07-29T13:02:19Z</time>
      </trkpt>
      <trkpt lat="42.65238" lon="1.85038">
        <ele>1261</ele>
        <time>2018-07-29T13:02:42Z</time>
      </trkpt>
      <trkpt lat="42.65248" lon="1.85022">
        <ele>1256</ele>
        <time>2018-07-29T13:03:03Z</time>
      </trkpt>
      <trkpt lat="42.65258" lon="1.85007">
        <ele>1252</ele>
        <time>2018-07-29T13:03:22Z</time>
      </trkpt>
      <trkpt lat="42.65277" lon="1.84989">
        <ele>1239</ele>
        <time>2018-07-29T13:03:52Z</time>
      </trkpt>
      <trkpt lat="42.65296" lon="1.84975">
        <ele>1237</ele>
        <time>2018-07-29T13:04:21Z</time>
      </trkpt>
      <trkpt lat="42.65307" lon="1.84959">
        <ele>1235</ele>
        <time>2018-07-29T13:04:40Z</time>
      </trkpt>
      <trkpt lat="42.65316" lon="1.84946">
        <ele>1232</ele>
        <time>2018-07-29T13:05:02Z</time>
      </trkpt>
      <trkpt lat="42.65324" lon="1.84926">
        <ele>1226</ele>
        <time>2018-07-29T13:05:32Z</time>
      </trkpt>
      <trkpt lat="42.65335" lon="1.84914">
        <ele>1219</ele>
        <time>2018-07-29T13:05:51Z</time>
      </trkpt>
      <trkpt lat="42.65345" lon="1.84899">
        <ele>1217</ele>
        <time>2018-07-29T13:06:10Z</time>
      </trkpt>
      <trkpt lat="42.6536" lon="1.84887">
        <ele>1216</ele>
        <time>2018-07-29T13:06:33Z</time>
      </trkpt>
      <trkpt lat="42.65375" lon="1.8487">
        <ele>1215</ele>
        <time>2018-07-29T13:06:57Z</time>
      </trkpt>
      <trkpt lat="42.65386" lon="1.84852">
        <ele>1214</ele>
        <time>2018-07-29T13:07:13Z</time>
      </trkpt>
      <trkpt lat="42.65396" lon="1.84833">
        <ele>1206</ele>
        <time>2018-07-29T13:07:28Z</time>
      </trkpt>
      <trkpt lat="42.65404" lon="1.84814">
        <ele>1205</ele>
        <time>2018-07-29T13:07:40Z</time>
      </trkpt>
      <trkpt lat="42.65409" lon="1.84797">
        <ele>1203</ele>
        <time>2018-07-29T13:07:55Z</time>
      </trkpt>
      <trkpt lat="42.65421" lon="1.84785">
        <ele>1208</ele>
        <time>2018-07-29T13:08:16Z</time>
      </trkpt>
      <trkpt lat="42.65435" lon="1.84768">
        <ele>1207</ele>
        <time>2018-07-29T13:08:34Z</time>
      </trkpt>
      <trkpt lat="42.65439" lon="1.84746">
        <ele>1199</ele>
        <time>2018-07-29T13:08:49Z</time>
      </trkpt>
      <trkpt lat="42.65441" lon="1.84723">
        <ele>1198</ele>
        <time>2018-07-29T13:09:02Z</time>
      </trkpt>
      <trkpt lat="42.65441" lon="1.84706">
        <ele>1197</ele>
        <time>2018-07-29T13:09:19Z</time>
      </trkpt>
      <trkpt lat="42.65442" lon="1.84693">
        <ele>1196</ele>
        <time>2018-07-29T13:09:33Z</time>
      </trkpt>
      <trkpt lat="42.65443" lon="1.84675">
        <ele>1194</ele>
        <time>2018-07-29T13:09:46Z</time>
      </trkpt>
      <trkpt lat="42.6545" lon="1.84663">
        <ele>1187</ele>
        <time>2018-07-29T13:09:57Z</time>
      </trkpt>
      <trkpt lat="42.65453" lon="1.84648">
        <ele>1186</ele>
        <time>2018-07-29T13:10:13Z</time>
      </trkpt>
      <trkpt lat="42.65462" lon="1.84631">
        <ele>1186</ele>
        <time>2018-07-29T13:10:27Z</time>
      </trkpt>
      <trkpt lat="42.65461" lon="1.84615">
        <ele>1184</ele>
        <time>2018-07-29T13:10:40Z</time>
      </trkpt>
      <trkpt lat="42.65457" lon="1.84603">
        <ele>1183</ele>
        <time>2018-07-29T13:10:50Z</time>
      </trkpt>
      <trkpt lat="42.6546" lon="1.84591">
        <ele>1183</ele>
        <time>2018-07-29T13:11:00Z</time>
      </trkpt>
      <trkpt lat="42.65468" lon="1.84585">
        <ele>1183</ele>
        <time>2018-07-29T13:11:10Z</time>
      </trkpt>
      <trkpt lat="42.65464" lon="1.84588">
        <ele>1183</ele>
        <time>2018-07-29T13:11:49Z</time>
      </trkpt>
      <trkpt lat="42.65471" lon="1.84586">
        <ele>1183</ele>
        <time>2018-07-29T13:12:01Z</time>
      </trkpt>
      <trkpt lat="42.65479" lon="1.84585">
        <ele>1183</ele>
        <time>2018-07-29T13:12:12Z</time>
      </trkpt>
      <trkpt lat="42.6549" lon="1.84583">
        <ele>1180</ele>
        <time>2018-07-29T13:12:23Z</time>
      </trkpt>
      <trkpt lat="42.655" lon="1.84583">
        <ele>1182</ele>
        <time>2018-07-29T13:12:34Z</time>
      </trkpt>
      <trkpt lat="42.65513" lon="1.84581">
        <ele>1180</ele>
        <time>2018-07-29T13:12:44Z</time>
      </trkpt>
      <trkpt lat="42.65523" lon="1.84577">
        <ele>1179</ele>
        <time>2018-07-29T13:12:56Z</time>
      </trkpt>
      <trkpt lat="42.65532" lon="1.84573">
        <ele>1179</ele>
        <time>2018-07-29T13:13:08Z</time>
      </trkpt>
      <trkpt lat="42.65545" lon="1.84571">
        <ele>1179</ele>
        <time>2018-07-29T13:13:19Z</time>
      </trkpt>
      <trkpt lat="42.65547" lon="1.84559">
        <ele>1178</ele>
        <time>2018-07-29T13:13:40Z</time>
      </trkpt>
      <trkpt lat="42.65547" lon="1.84556">
        <ele>1178</ele>
        <time>2018-07-29T13:14:04Z</time>
      </trkpt>
      <trkpt lat="42.65547" lon="1.84552">
        <ele>1178</ele>
        <time>2018-07-29T13:14:21Z</time>
      </trkpt>
      <trkpt lat="42.65547" lon="1.8455">
        <ele>1178</ele>
        <time>2018-07-29T13:15:15Z</time>
      </trkpt>
      <trkpt lat="42.65543" lon="1.84543">
        <ele>1177</ele>
        <time>2018-07-29T13:15:27Z</time>
      </trkpt>
      <trkpt lat="42.65542" lon="1.84535">
        <ele>1177</ele>
        <time>2018-07-29T13:15:54Z</time>
      </trkpt>
      <trkpt lat="42.65542" lon="1.84526">
        <ele>1176</ele>
        <time>2018-07-29T13:16:09Z</time>
      </trkpt>
      <trkpt lat="42.65545" lon="1.84516">
        <ele>1175</ele>
        <time>2018-07-29T13:16:22Z</time>
      </trkpt>
      <trkpt lat="42.65546" lon="1.84504">
        <ele>1175</ele>
        <time>2018-07-29T13:16:33Z</time>
      </trkpt>
      <trkpt lat="42.65549" lon="1.84491">
        <ele>1167</ele>
        <time>2018-07-29T13:16:44Z</time>
      </trkpt>
      <trkpt lat="42.65551" lon="1.8448">
        <ele>1166</ele>
        <time>2018-07-29T13:17:04Z</time>
      </trkpt>
      <trkpt lat="42.65555" lon="1.84466">
        <ele>1165</ele>
        <time>2018-07-29T13:17:18Z</time>
      </trkpt>
      <trkpt lat="42.65558" lon="1.84452">
        <ele>1164</ele>
        <time>2018-07-29T13:17:29Z</time>
      </trkpt>
      <trkpt lat="42.6556" lon="1.84439">
        <ele>1163</ele>
        <time>2018-07-29T13:17:40Z</time>
      </trkpt>
      <trkpt lat="42.65562" lon="1.84425">
        <ele>1162</ele>
        <time>2018-07-29T13:17:51Z</time>
      </trkpt>
      <trkpt lat="42.65565" lon="1.84413">
        <ele>1157</ele>
        <time>2018-07-29T13:18:02Z</time>
      </trkpt>
      <trkpt lat="42.65571" lon="1.84404">
        <ele>1157</ele>
        <time>2018-07-29T13:18:12Z</time>
      </trkpt>
      <trkpt lat="42.65577" lon="1.84391">
        <ele>1156</ele>
        <time>2018-07-29T13:18:23Z</time>
      </trkpt>
      <trkpt lat="42.65584" lon="1.84384">
        <ele>1155</ele>
        <time>2018-07-29T13:18:33Z</time>
      </trkpt>
      <trkpt lat="42.65591" lon="1.84373">
        <ele>1153</ele>
        <time>2018-07-29T13:18:44Z</time>
      </trkpt>
      <trkpt lat="42.65589" lon="1.84361">
        <ele>1152</ele>
        <time>2018-07-29T13:18:52Z</time>
      </trkpt>
      <trkpt lat="42.65584" lon="1.8435">
        <ele>1150</ele>
        <time>2018-07-29T13:19:01Z</time>
      </trkpt>
      <trkpt lat="42.65578" lon="1.84341">
        <ele>1148</ele>
        <time>2018-07-29T13:19:10Z</time>
      </trkpt>
      <trkpt lat="42.65571" lon="1.84332">
        <ele>1148</ele>
        <time>2018-07-29T13:19:18Z</time>
      </trkpt>
      <trkpt lat="42.6556" lon="1.84326">
        <ele>1149</ele>
        <time>2018-07-29T13:19:27Z</time>
      </trkpt>
      <trkpt lat="42.65553" lon="1.84317">
        <ele>1150</ele>
        <time>2018-07-29T13:19:36Z</time>
      </trkpt>
      <trkpt lat="42.65543" lon="1.8432">
        <ele>1152</ele>
        <time>2018-07-29T13:19:45Z</time>
      </trkpt>
      <trkpt lat="42.65534" lon="1.84329">
        <ele>1153</ele>
        <time>2018-07-29T13:19:55Z</time>
      </trkpt>
    </trkseg>
  </trk>
</gpx>